| time (UTC) | temp F | wind direction | speed knots | gust knots | rain 1hr in | rain 24hr in | rain mn in | humidity % | barometer mb |
| 20260507035501 | 50 | 245 | 0.9 | 0.9 | 0.00 | 0.00 | 0.00 | 93 | 930.9 |
| 20260507035401 | 50 | 244 | 0.9 | 1.7 | 0.00 | 0.00 | 0.00 | 93 | 931.0 |
| 20260507035301 | 50 | 223 | 0.9 | 0.9 | 0.00 | 0.00 | 0.00 | 93 | 930.8 |
| 20260507035201 | 50 | 256 | 0.9 | 0.9 | 0.00 | 0.00 | 0.00 | 93 | 930.9 |
| 20260507035101 | 50 | 228 | 0.9 | 0.9 | 0.00 | 0.00 | 0.00 | 93 | 930.8 |
| 20260507035001 | 50 | 242 | 0.0 | 0.9 | 0.00 | 0.00 | 0.00 | 93 | 930.6 |
| 20260507034901 | 50 | 230 | 0.9 | 0.9 | 0.00 | 0.00 | 0.00 | 93 | 930.7 |
| 20260507034801 | 50 | 281 | 0.9 | 1.7 | 0.00 | 0.00 | 0.00 | 93 | 930.9 |
| 20260507034701 | 50 | 226 | 0.9 | 1.7 | 0.00 | 0.00 | 0.00 | 93 | 930.6 |
| 20260507034601 | 50 | 251 | 0.9 | 0.9 | 0.00 | 0.00 | 0.00 | 93 | 931.0 |
| 20260507034501 | 50 | 234 | 0.0 | 1.7 | 0.00 | 0.00 | 0.00 | 93 | 930.9 |
| 20260507034401 | 50 | 223 | 0.9 | 1.7 | 0.00 | 0.00 | 0.00 | 93 | 930.9 |
| 20260507034305 | 50 | 219 | 0.9 | 0.9 | 0.00 | 0.00 | 0.00 | 93 | 930.8 |
| 20260507034201 | 50 | 213 | 0.0 | 0.9 | 0.00 | 0.00 | 0.00 | 93 | 930.6 |
| 20260507034102 | 50 | 216 | 0.9 | 0.9 | 0.00 | 0.00 | 0.00 | 93 | 930.8 |
| 20260507034000 | 50 | 221 | 0.9 | 0.9 | 0.00 | 0.00 | 0.00 | 93 | 930.9 |
| 20260507033901 | 50 | 213 | 0.9 | 0.9 | 0.00 | 0.00 | 0.00 | 93 | 930.8 |
| 20260507033801 | 50 | 213 | 0.0 | 0.9 | 0.00 | 0.00 | 0.00 | 93 | 930.6 |
| 20260507033701 | 50 | 217 | 0.0 | 1.7 | 0.00 | 0.00 | 0.00 | 93 | 930.8 |
| 20260507033602 | 50 | 221 | 0.9 | 1.7 | 0.00 | 0.00 | 0.00 | 93 | 930.8 |
| 20260507033501 | 50 | 213 | 0.9 | 0.9 | 0.00 | 0.00 | 0.00 | 93 | 930.8 |
| 20260507033401 | 50 | 215 | 0.9 | 0.9 | 0.00 | 0.00 | 0.00 | 92 | 930.7 |
| 20260507033301 | 50 | 210 | 0.9 | 0.9 | 0.00 | 0.00 | 0.00 | 92 | 930.7 |
| 20260507033203 | 50 | 205 | 0.9 | 0.9 | 0.00 | 0.00 | 0.00 | 92 | 930.8 |
| 20260507033101 | 50 | 208 | 0.9 | 0.9 | 0.00 | 0.00 | 0.00 | 92 | 930.6 |
| 20260507033001 | 50 | 219 | 0.9 | 0.9 | 0.00 | 0.00 | 0.00 | 92 | 930.6 |
| 20260507032901 | 50 | 217 | 0.9 | 0.9 | 0.00 | 0.00 | 0.00 | 92 | 930.7 |
| 20260507032801 | 50 | 194 | 0.9 | 0.9 | 0.00 | 0.00 | 0.00 | 92 | 930.5 |
| 20260507032701 | 50 | 209 | 0.9 | 1.7 | 0.00 | 0.00 | 0.00 | 92 | 930.6 |
| 20260507032602 | 51 | 208 | 0.9 | 1.7 | 0.00 | 0.00 | 0.00 | 92 | 930.7 |
| 20260507032501 | 51 | 219 | 1.7 | 1.7 | 0.00 | 0.00 | 0.00 | 92 | 930.8 |
| 20260507032401 | 51 | 209 | 0.9 | 0.9 | 0.00 | 0.00 | 0.00 | 92 | 930.6 |
| 20260507032301 | 51 | 219 | 0.9 | 0.9 | 0.00 | 0.00 | 0.00 | 92 | 930.8 |
| 20260507032201 | 51 | 213 | 0.9 | 1.7 | 0.00 | 0.00 | 0.00 | 92 | 930.8 |
| 20260507032100 | 51 | 222 | 0.9 | 1.7 | 0.00 | 0.00 | 0.00 | 91 | 930.7 |
| 20260507032001 | 51 | 217 | 0.9 | 0.9 | 0.00 | 0.00 | 0.00 | 91 | 930.6 |
| 20260507031902 | 51 | 213 | 0.9 | 1.7 | 0.00 | 0.00 | 0.00 | 91 | 930.7 |
| 20260507031801 | 51 | 213 | 0.9 | 2.6 | 0.00 | 0.00 | 0.00 | 91 | 930.6 |
| 20260507031701 | 51 | 219 | 1.7 | 2.6 | 0.00 | 0.00 | 0.00 | 91 | 930.7 |
| 20260507031601 | 51 | 211 | 1.7 | 2.6 | 0.00 | 0.00 | 0.00 | 91 | 930.6 |
| 20260507031501 | 51 | 209 | 1.7 | 1.7 | 0.00 | 0.00 | 0.00 | 91 | 930.6 |
| 20260507031401 | 51 | 193 | 1.7 | 1.7 | 0.00 | 0.00 | 0.00 | 91 | 930.4 |
| 20260507031301 | 51 | 205 | 0.9 | 1.7 | 0.00 | 0.00 | 0.00 | 91 | 930.5 |
| 20260507031201 | 51 | 205 | 1.7 | 1.7 | 0.00 | 0.00 | 0.00 | 91 | 930.4 |
| 20260507031101 | 51 | 202 | 0.9 | 1.7 | 0.00 | 0.00 | 0.00 | 91 | 930.6 |
| 20260507031001 | 51 | 202 | 1.7 | 1.7 | 0.00 | 0.00 | 0.00 | 91 | 930.6 |
| 20260507030901 | 51 | 207 | 0.9 | 0.9 | 0.00 | 0.00 | 0.00 | 91 | 930.5 |
| 20260507030801 | 51 | 213 | 0.9 | 1.7 | 0.00 | 0.00 | 0.00 | 91 | 930.4 |
| 20260507030701 | 51 | 208 | 0.9 | 1.7 | 0.00 | 0.00 | 0.00 | 90 | 930.4 |
| 20260507030601 | 51 | 210 | 1.7 | 1.7 | 0.00 | 0.00 | 0.00 | 90 | 930.5 |
| 20260507030501 | 51 | 210 | 1.7 | 1.7 | 0.00 | 0.00 | 0.00 | 90 | 930.5 |
| 20260507030401 | 51 | 210 | 0.9 | 1.7 | 0.00 | 0.00 | 0.00 | 90 | 930.5 |
| 20260507030301 | 51 | 210 | 1.7 | 1.7 | 0.00 | 0.00 | 0.00 | 90 | 930.7 |
| 20260507030201 | 51 | 212 | 0.9 | 1.7 | 0.00 | 0.00 | 0.00 | 90 | 930.7 |
| 20260507030101 | 51 | 199 | 0.9 | 1.7 | 0.00 | 0.00 | 0.00 | 90 | 930.5 |
| 20260507030001 | 51 | 201 | 0.9 | 1.7 | 0.00 | 0.00 | 0.00 | 90 | 930.3 |
| 20260507025901 | 51 | 196 | 0.9 | 1.7 | 0.00 | 0.00 | 0.00 | 90 | 930.2 |
| 20260507025801 | 51 | 222 | 1.7 | 1.7 | 0.00 | 0.00 | 0.00 | 90 | 930.4 |
| 20260507025701 | 51 | 212 | 1.7 | 2.6 | 0.00 | 0.00 | 0.00 | 90 | 930.4 |
| 20260507025601 | 51 | 207 | 1.7 | 2.6 | 0.00 | 0.00 | 0.00 | 90 | 930.4 |
| 20260507025501 | 51 | 212 | 1.7 | 2.6 | 0.00 | 0.00 | 0.00 | 90 | 930.4 |
| 20260507025401 | 51 | 214 | 1.7 | 2.6 | 0.00 | 0.00 | 0.00 | 90 | 930.5 |
| 20260507025301 | 51 | 223 | 0.9 | 1.7 | 0.00 | 0.00 | 0.00 | 90 | 930.5 |
| 20260507025201 | 51 | 203 | 1.7 | 1.7 | 0.00 | 0.00 | 0.00 | 90 | 930.3 |
| 20260507025101 | 51 | 220 | 1.7 | 1.7 | 0.00 | 0.00 | 0.00 | 90 | 930.5 |
| 20260507025001 | 51 | 194 | 0.9 | 1.7 | 0.00 | 0.00 | 0.00 | 90 | 930.4 |
| 20260507024901 | 50 | 204 | 0.9 | 1.7 | 0.00 | 0.00 | 0.00 | 90 | 930.4 |
| 20260507024801 | 50 | 205 | 0.9 | 1.7 | 0.00 | 0.00 | 0.00 | 90 | 930.4 |
| 20260507024701 | 50 | 205 | 1.7 | 1.7 | 0.00 | 0.00 | 0.00 | 90 | 930.4 |
| 20260507024601 | 50 | 213 | 0.9 | 1.7 | 0.00 | 0.00 | 0.00 | 90 | 930.4 |
| 20260507024501 | 51 | 199 | 0.9 | 1.7 | 0.00 | 0.00 | 0.00 | 90 | 930.3 |
| 20260507024401 | 51 | 195 | 0.9 | 1.7 | 0.00 | 0.00 | 0.00 | 89 | 930.3 |
| 20260507024301 | 51 | 193 | 0.9 | 1.7 | 0.00 | 0.00 | 0.00 | 90 | 930.5 |
| 20260507024206 | 50 | 193 | 1.7 | 1.7 | 0.00 | 0.00 | 0.00 | 89 | 930.2 |
| 20260507024101 | 50 | 199 | 1.7 | 1.7 | 0.00 | 0.00 | 0.00 | 89 | 930.2 |
| 20260507024001 | 50 | 212 | 1.7 | 1.7 | 0.00 | 0.00 | 0.00 | 89 | 930.4 |
| 20260507023901 | 50 | 211 | 0.9 | 1.7 | 0.00 | 0.00 | 0.00 | 89 | 930.1 |
| 20260507023801 | 51 | 189 | 0.9 | 1.7 | 0.00 | 0.00 | 0.00 | 89 | 930.2 |
| 20260507023701 | 51 | 182 | 0.9 | 1.7 | 0.00 | 0.00 | 0.00 | 88 | 930.1 |
| 20260507023601 | 51 | 201 | 0.9 | 1.7 | 0.00 | 0.00 | 0.00 | 88 | 930.1 |
| 20260507023501 | 51 | 193 | 0.9 | 1.7 | 0.00 | 0.00 | 0.00 | 88 | 930.2 |
| 20260507023400 | 51 | 217 | 0.9 | 1.7 | 0.00 | 0.00 | 0.00 | 88 | 930.2 |
| 20260507023301 | 51 | 204 | 1.7 | 1.7 | 0.00 | 0.00 | 0.00 | 87 | 930.2 |
| 20260507023201 | 51 | 200 | 0.9 | 1.7 | 0.00 | 0.00 | 0.00 | 87 | 930.2 |
| 20260507023101 | 51 | 207 | 0.9 | 1.7 | 0.00 | 0.00 | 0.00 | 86 | 930.1 |
| 20260507023001 | 51 | 212 | 0.9 | 1.7 | 0.00 | 0.00 | 0.00 | 86 | 930.1 |
| 20260507022901 | 51 | 207 | 0.9 | 1.7 | 0.00 | 0.00 | 0.00 | 86 | 930.3 |
| 20260507022802 | 51 | 212 | 1.7 | 1.7 | 0.00 | 0.00 | 0.00 | 86 | 930.1 |
| 20260507022701 | 51 | 210 | 0.9 | 1.7 | 0.00 | 0.00 | 0.00 | 86 | 930.1 |
| 20260507022601 | 51 | 213 | 1.7 | 1.7 | 0.00 | 0.00 | 0.00 | 87 | 930.1 |
| 20260507022501 | 51 | 223 | 0.9 | 1.7 | 0.00 | 0.00 | 0.00 | 87 | 930.1 |
| 20260507022401 | 51 | 199 | 0.9 | 1.7 | 0.00 | 0.00 | 0.00 | 87 | 930.3 |
| 20260507022300 | 51 | 210 | 0.9 | 0.9 | 0.00 | 0.00 | 0.00 | 88 | 930.1 |
| 20260507022201 | 51 | 200 | 0.9 | 0.9 | 0.00 | 0.00 | 0.00 | 88 | 930.1 |
| 20260507022101 | 51 | 210 | 0.9 | 0.9 | 0.00 | 0.00 | 0.00 | 88 | 930.1 |
| 20260507022003 | 51 | 208 | 0.9 | 0.9 | 0.00 | 0.00 | 0.00 | 88 | 930.3 |
| 20260507021903 | 51 | 194 | 0.9 | 0.9 | 0.00 | 0.00 | 0.00 | 89 | 930.3 |
| 20260507021801 | 51 | 205 | 0.9 | 0.9 | 0.00 | 0.00 | 0.00 | 89 | 930.3 |
| 20260507021701 | 51 | 195 | 0.9 | 0.9 | 0.00 | 0.00 | 0.00 | 89 | 930.1 |
| 20260507021601 | 51 | 196 | 0.9 | 0.9 | 0.00 | 0.00 | 0.00 | 89 | 930.3 |
| 20260507021501 | 51 | 191 | 0.9 | 0.9 | 0.00 | 0.00 | 0.00 | 89 | 930.2 |
| 20260507021401 | 50 | 212 | 0.0 | 0.9 | 0.00 | 0.00 | 0.00 | 89 | 930.4 |
| 20260507021300 | 50 | 212 | 0.9 | 0.9 | 0.00 | 0.00 | 0.00 | 89 | 930.3 |
| 20260507021201 | 50 | 213 | 0.9 | 0.9 | 0.00 | 0.00 | 0.00 | 90 | 930.1 |
| 20260507021101 | 50 | 216 | 0.9 | 0.9 | 0.00 | 0.00 | 0.00 | 90 | 930.1 |
| 20260507021001 | 50 | 230 | 0.9 | 0.9 | 0.00 | 0.00 | 0.00 | 90 | 930.5 |
| 20260507020901 | 50 | 213 | 0.0 | 0.9 | 0.00 | 0.00 | 0.00 | 90 | 930.3 |
| 20260507020801 | 50 | 214 | 0.0 | 0.9 | 0.00 | 0.00 | 0.00 | 90 | 930.3 |
| 20260507020701 | 50 | 216 | 0.0 | 0.9 | 0.00 | 0.00 | 0.00 | 90 | 930.3 |
| 20260507020601 | 50 | 216 | 0.0 | 0.9 | 0.00 | 0.00 | 0.00 | 90 | 930.4 |
| 20260507020501 | 50 | 216 | 0.0 | 0.9 | 0.00 | 0.00 | 0.00 | 90 | 930.4 |
| 20260507020401 | 50 | 216 | 0.9 | 0.9 | 0.00 | 0.00 | 0.00 | 90 | 930.4 |
| 20260507020301 | 50 | 222 | 0.9 | 0.9 | 0.00 | 0.00 | 0.00 | 91 | 930.5 |
| 20260507020201 | 50 | 217 | 0.9 | 1.7 | 0.00 | 0.00 | 0.00 | 91 | 930.3 |
| 20260507020100 | 50 | 211 | 1.7 | 1.7 | 0.00 | 0.00 | 0.00 | 91 | 930.3 |
| 20260507020001 | 50 | 205 | 0.9 | 0.9 | 0.00 | 0.00 | 0.00 | 91 | 930.2 |
| 20260507015902 | 50 | 220 | 0.9 | 0.9 | 0.00 | 0.00 | 0.00 | 92 | 930.4 |
| 20260507015801 | 50 | 221 | 0.0 | 0.9 | 0.00 | 0.00 | 0.00 | 92 | 930.1 |
| 20260507015701 | 50 | 214 | 0.9 | 0.9 | 0.00 | 0.00 | 0.00 | 92 | 930.3 |
| 20260507015601 | 50 | 205 | 0.9 | 0.9 | 0.00 | 0.00 | 0.00 | 92 | 930.5 |
| 20260507015501 | 49 | 208 | 0.9 | 1.7 | 0.00 | 0.00 | 0.00 | 92 | 930.5 |
| 20260507015401 | 49 | 212 | 0.9 | 1.7 | 0.00 | 0.00 | 0.00 | 93 | 930.4 |
| 20260507015301 | 49 | 212 | 0.9 | 0.9 | 0.00 | 0.00 | 0.00 | 93 | 930.4 |
| 20260507015201 | 49 | 214 | 0.9 | 1.7 | 0.00 | 0.00 | 0.00 | 92 | 930.4 |
| 20260507015100 | 50 | 213 | 0.9 | 0.9 | 0.00 | 0.00 | 0.00 | 92 | 930.2 |
| 20260507015001 | 50 | 212 | 0.9 | 0.9 | 0.00 | 0.00 | 0.00 | 92 | 930.3 |
| 20260507014901 | 50 | 211 | 0.9 | 1.7 | 0.00 | 0.00 | 0.00 | 92 | 930.5 |
| 20260507014800 | 50 | 212 | 0.9 | 1.7 | 0.00 | 0.00 | 0.00 | 92 | 930.2 |
| 20260507014702 | 50 | 208 | 0.9 | 1.7 | 0.00 | 0.00 | 0.00 | 92 | 930.3 |
| 20260507014601 | 50 | 213 | 0.9 | 1.7 | 0.00 | 0.00 | 0.00 | 92 | 930.4 |
| 20260507014501 | 50 | 203 | 1.7 | 1.7 | 0.00 | 0.00 | 0.00 | 91 | 930.0 |
| 20260507014400 | 50 | 202 | 1.7 | 1.7 | 0.00 | 0.00 | 0.00 | 91 | 930.1 |
| 20260507014301 | 50 | 202 | 0.9 | 1.7 | 0.00 | 0.00 | 0.00 | 91 | 930.2 |
| 20260507014201 | 50 | 199 | 0.9 | 1.7 | 0.00 | 0.00 | 0.00 | 91 | 930.2 |
| 20260507014101 | 50 | 195 | 1.7 | 1.7 | 0.00 | 0.00 | 0.00 | 91 | 930.1 |
| 20260507014001 | 50 | 206 | 0.9 | 1.7 | 0.00 | 0.00 | 0.00 | 91 | 930.2 |
| 20260507013901 | 50 | 215 | 0.9 | 1.7 | 0.00 | 0.00 | 0.00 | 91 | 930.2 |
| 20260507013801 | 50 | 203 | 0.9 | 1.7 | 0.00 | 0.00 | 0.00 | 90 | 930.1 |
| 20260507013700 | 50 | 199 | 0.9 | 1.7 | 0.00 | 0.00 | 0.00 | 90 | 930.1 |
| 20260507013601 | 50 | 194 | 0.9 | 1.7 | 0.00 | 0.00 | 0.00 | 90 | 930.2 |
| 20260507013501 | 50 | 209 | 0.9 | 1.7 | 0.00 | 0.00 | 0.00 | 90 | 930.1 |
| 20260507013402 | 50 | 216 | 1.7 | 1.7 | 0.00 | 0.00 | 0.00 | 90 | 930.1 |
| 20260507013300 | 50 | 209 | 0.9 | 0.9 | 0.00 | 0.00 | 0.00 | 90 | 929.9 |
| 20260507013201 | 50 | 196 | 0.9 | 0.9 | 0.00 | 0.00 | 0.00 | 91 | 930.0 |
| 20260507013100 | 50 | 200 | 0.9 | 1.7 | 0.00 | 0.00 | 0.00 | 91 | 930.1 |
| 20260507013001 | 50 | 211 | 0.9 | 1.7 | 0.00 | 0.00 | 0.00 | 91 | 930.0 |
| 20260507012900 | 50 | 216 | 0.9 | 1.7 | 0.00 | 0.00 | 0.00 | 91 | 930.0 |
| 20260507012801 | 50 | 211 | 0.9 | 0.9 | 0.00 | 0.00 | 0.00 | 91 | 930.1 |
| 20260507012701 | 50 | 188 | 0.9 | 0.9 | 0.00 | 0.00 | 0.00 | 91 | 930.1 |
| 20260507012601 | 50 | 187 | 0.9 | 0.9 | 0.00 | 0.00 | 0.00 | 92 | 930.1 |
| 20260507012501 | 50 | 194 | 0.9 | 0.9 | 0.00 | 0.00 | 0.00 | 92 | 930.0 |
| 20260507012401 | 50 | 209 | 0.9 | 0.9 | 0.00 | 0.00 | 0.00 | 92 | 930.1 |
| 20260507012301 | 50 | 215 | 0.9 | 0.9 | 0.00 | 0.00 | 0.00 | 92 | 929.9 |
| 20260507012201 | 50 | 209 | 0.9 | 0.9 | 0.00 | 0.00 | 0.00 | 92 | 930.1 |
| 20260507012101 | 50 | 209 | 0.9 | 0.9 | 0.00 | 0.00 | 0.00 | 92 | 930.2 |
| 20260507012000 | 50 | 215 | 0.9 | 0.9 | 0.00 | 0.00 | 0.00 | 93 | 930.0 |
| 20260507011901 | 50 | 207 | 0.9 | 1.7 | 0.00 | 0.00 | 0.00 | 93 | 930.0 |
| 20260507011801 | 50 | 209 | 0.9 | 1.7 | 0.00 | 0.00 | 0.00 | 93 | 930.0 |
| 20260507011700 | 50 | 209 | 0.9 | 1.7 | 0.00 | 0.00 | 0.00 | 94 | 930.0 |
| 20260507011601 | 50 | 212 | 0.9 | 0.9 | 0.00 | 0.00 | 0.00 | 94 | 930.1 |
| 20260507011501 | 50 | 212 | 0.9 | 0.9 | 0.00 | 0.00 | 0.00 | 95 | 930.0 |
| 20260507011401 | 50 | 211 | 0.9 | 0.9 | 0.00 | 0.00 | 0.00 | 95 | 930.0 |
| 20260507011302 | 49 | 211 | 0.9 | 0.9 | 0.00 | 0.00 | 0.00 | 95 | 930.0 |
| 20260507011202 | 49 | 211 | 0.9 | 0.9 | 0.00 | 0.00 | 0.00 | 95 | 930.1 |
| 20260507011101 | 49 | 160 | 0.9 | 0.9 | 0.00 | 0.00 | 0.00 | 95 | 929.7 |
| 20260507011001 | 49 | 160 | 0.9 | 0.9 | 0.00 | 0.00 | 0.00 | 95 | 929.9 |
| 20260507010900 | 49 | 160 | 0.0 | 0.9 | 0.00 | 0.00 | 0.00 | 95 | 929.8 |
| 20260507010801 | 49 | 160 | 0.9 | 0.9 | 0.00 | 0.00 | 0.00 | 95 | 929.6 |
| 20260507010700 | 49 | 159 | 0.9 | 0.9 | 0.00 | 0.00 | 0.00 | 95 | 929.8 |
| 20260507010600 | 49 | 160 | 0.9 | 0.9 | 0.00 | 0.00 | 0.00 | 95 | 929.8 |
| 20260507010501 | 49 | 159 | 0.9 | 0.9 | 0.00 | 0.00 | 0.00 | 95 | 929.7 |
| 20260507010401 | 49 | 159 | 0.9 | 0.9 | 0.00 | 0.00 | 0.00 | 95 | 929.7 |
| 20260507010301 | 49 | 159 | 0.0 | 0.9 | 0.00 | 0.00 | 0.00 | 95 | 929.8 |
| 20260507010201 | 49 | 160 | 0.9 | 0.9 | 0.00 | 0.00 | 0.00 | 94 | 929.7 |
| 20260507010101 | 49 | 160 | 0.9 | 0.9 | 0.00 | 0.00 | 0.00 | 94 | 929.9 |
| 20260507010001 | 49 | 165 | 0.9 | 0.9 | 0.00 | 0.00 | 0.00 | 94 | 929.8 |
| 20260507005901 | 49 | 163 | 0.9 | 0.9 | 0.00 | 0.00 | 0.00 | 94 | 929.8 |
| 20260507005800 | 49 | 158 | 0.9 | 0.9 | 0.00 | 0.00 | 0.00 | 94 | 929.9 |
| 20260507005701 | 49 | 153 | 0.9 | 0.9 | 0.00 | 0.00 | 0.00 | 94 | 929.7 |
| 20260507005601 | 49 | 153 | 0.9 | 0.9 | 0.00 | 0.00 | 0.00 | 94 | 929.9 |
| 20260507005501 | 50 | 158 | 0.9 | 0.9 | 0.00 | 0.00 | 0.00 | 93 | 929.7 |
| 20260507005401 | 50 | 158 | 0.9 | 0.9 | 0.00 | 0.00 | 0.00 | 93 | 929.9 |
| 20260507005301 | 50 | 169 | 0.9 | 0.9 | 0.00 | 0.00 | 0.00 | 93 | 929.8 |
| 20260507005201 | 50 | 176 | 0.9 | 0.9 | 0.00 | 0.00 | 0.00 | 93 | 929.8 |
| 20260507005101 | 50 | 175 | 0.9 | 1.7 | 0.00 | 0.00 | 0.00 | 93 | 929.9 |
| 20260507005001 | 50 | 188 | 0.9 | 1.7 | 0.00 | 0.00 | 0.00 | 93 | 929.9 |
| 20260507004901 | 50 | 190 | 0.9 | 1.7 | 0.00 | 0.00 | 0.00 | 93 | 929.5 |
| 20260507004801 | 50 | 195 | 0.9 | 1.7 | 0.00 | 0.00 | 0.00 | 93 | 929.8 |
| 20260507004701 | 50 | 212 | 0.9 | 1.7 | 0.00 | 0.00 | 0.00 | 93 | 929.9 |
| 20260507004601 | 50 | 216 | 0.9 | 0.9 | 0.00 | 0.00 | 0.00 | 92 | 930.0 |
| 20260507004501 | 50 | 216 | 0.9 | 1.7 | 0.00 | 0.00 | 0.00 | 92 | 929.9 |
| 20260507004400 | 50 | 219 | 0.9 | 1.7 | 0.00 | 0.00 | 0.00 | 91 | 929.9 |
| 20260507004301 | 50 | 214 | 1.7 | 1.7 | 0.00 | 0.00 | 0.00 | 91 | 930.0 |
| 20260507004201 | 50 | 194 | 0.9 | 0.9 | 0.00 | 0.00 | 0.00 | 90 | 930.0 |
| 20260507004107 | 51 | 197 | 0.9 | 0.9 | 0.00 | 0.00 | 0.00 | 90 | 930.0 |
| 20260507004001 | 51 | 176 | 0.9 | 0.9 | 0.00 | 0.00 | 0.00 | 90 | 929.7 |
| 20260507003900 | 51 | 172 | 0.9 | 0.9 | 0.00 | 0.00 | 0.00 | 89 | 929.8 |
| 20260507003801 | 51 | 167 | 0.9 | 0.9 | 0.00 | 0.00 | 0.00 | 89 | 929.8 |
| 20260507003701 | 51 | 160 | 0.9 | 0.9 | 0.00 | 0.00 | 0.00 | 89 | 929.7 |
| 20260507003600 | 51 | 125 | 0.0 | 0.9 | 0.00 | 0.00 | 0.00 | 89 | 929.7 |
| 20260507003501 | 51 | 124 | 0.0 | 0.9 | 0.00 | 0.00 | 0.00 | 89 | 929.6 |
| 20260507003401 | 51 | 10 | 0.0 | 0.0 | 0.00 | 0.00 | 0.00 | 89 | 929.7 |
| 20260507003301 | 51 | 10 | 0.0 | 0.0 | 0.00 | 0.00 | 0.00 | 89 | 929.7 |
| 20260507003201 | 51 | 9 | 0.0 | 0.0 | 0.00 | 0.00 | 0.00 | 89 | 929.5 |
| 20260507003101 | 51 | 9 | 0.0 | 0.0 | 0.00 | 0.00 | 0.00 | 89 | 929.6 |
| 20260507003002 | 51 | 9 | 0.0 | 0.0 | 0.00 | 0.00 | 0.00 | 89 | 929.7 |
| 20260507002901 | 51 | 9 | 0.0 | 0.9 | 0.00 | 0.00 | 0.00 | 89 | 929.5 |
| 20260507002800 | 51 | 16 | 0.9 | 0.9 | 0.00 | 0.00 | 0.00 | 89 | 929.8 |
| 20260507002700 | 51 | 1 | 0.9 | 0.9 | 0.00 | 0.00 | 0.00 | 89 | 929.7 |
| 20260507002607 | 51 | 30 | 0.9 | 0.9 | 0.00 | 0.00 | 0.00 | 89 | 929.6 |
| 20260507002501 | 51 | 36 | 0.0 | 0.0 | 0.00 | 0.00 | 0.00 | 89 | 929.6 |
| 20260507002401 | 51 | 36 | 0.0 | 0.0 | 0.00 | 0.00 | 0.00 | 89 | 929.6 |
| 20260507002300 | 51 | 37 | 0.0 | 0.0 | 0.00 | 0.00 | 0.00 | 89 | 929.4 |
| 20260507002201 | 51 | 330 | 0.0 | 0.0 | 0.00 | 0.00 | 0.00 | 89 | 929.5 |
| 20260507002101 | 51 | 330 | 0.0 | 0.0 | 0.00 | 0.00 | 0.00 | 89 | 929.4 |
| 20260507002001 | 51 | 330 | 0.0 | 0.0 | 0.00 | 0.00 | 0.00 | 89 | 929.6 |
| 20260507001900 | 51 | 330 | 0.0 | 0.0 | 0.00 | 0.00 | 0.00 | 89 | 929.4 |
| 20260507001801 | 51 | 330 | 0.0 | 0.0 | 0.00 | 0.00 | 0.00 | 89 | 929.6 |
| 20260507001700 | 51 | 330 | 0.0 | 0.0 | 0.00 | 0.00 | 0.00 | 89 | 929.4 |
| 20260507001601 | 51 | 329 | 0.0 | 0.0 | 0.00 | 0.00 | 0.00 | 89 | 929.7 |
| 20260507001501 | 51 | 329 | 0.0 | 0.0 | 0.00 | 0.00 | 0.00 | 89 | 929.6 |
| 20260507001401 | 51 | 329 | 0.0 | 0.9 | 0.00 | 0.00 | 0.00 | 89 | 929.7 |
| 20260507001301 | 51 | 329 | 0.0 | 0.9 | 0.00 | 0.00 | 0.00 | 89 | 929.5 |
| 20260507001201 | 51 | 322 | 0.9 | 0.9 | 0.00 | 0.00 | 0.00 | 89 | 929.5 |
| 20260507001100 | 51 | 328 | 0.0 | 0.9 | 0.00 | 0.00 | 0.00 | 89 | 929.3 |
| 20260507001001 | 51 | 336 | 0.9 | 0.9 | 0.00 | 0.00 | 0.00 | 88 | 929.4 |
| 20260507000901 | 51 | 342 | 0.9 | 0.9 | 0.00 | 0.00 | 0.00 | 88 | 929.3 |
| 20260507000801 | 51 | 358 | 0.9 | 0.9 | 0.00 | 0.00 | 0.00 | 89 | 929.3 |
| 20260507000701 | 51 | 338 | 0.9 | 0.9 | 0.00 | 0.00 | 0.00 | 88 | 929.3 |
| 20260507000602 | 51 | 24 | 0.9 | 0.9 | 0.00 | 0.00 | 0.00 | 88 | 929.3 |
| 20260507000501 | 51 | 20 | 0.9 | 0.9 | 0.00 | 0.00 | 0.00 | 88 | 929.2 |
| 20260507000401 | 51 | 351 | 0.9 | 0.9 | 0.00 | 0.00 | 0.00 | 88 | 929.3 |
| 20260507000301 | 51 | 351 | 0.9 | 0.9 | 0.00 | 0.00 | 0.00 | 88 | 929.3 |
| 20260507000201 | 51 | 346 | 0.9 | 0.9 | 0.00 | 0.00 | 0.00 | 88 | 929.2 |
| 20260507000002 | 51 | 345 | 0.9 | 0.9 | 0.00 | 0.00 | 0.00 | 89 | 929.3 |
| 20260506235901 | 51 | 342 | 0.9 | 0.9 | 0.00 | 0.00 | 0.00 | 89 | 929.4 |
| 20260506235801 | 51 | 334 | 0.9 | 0.9 | 0.00 | 0.00 | 0.00 | 89 | 929.5 |
| 20260506235701 | 51 | 316 | 0.9 | 0.9 | 0.00 | 0.00 | 0.00 | 89 | 929.6 |
| 20260506235601 | 51 | 320 | 0.9 | 0.9 | 0.00 | 0.00 | 0.00 | 89 | 929.5 |
| 20260506235501 | 51 | 312 | 0.0 | 0.9 | 0.00 | 0.00 | 0.00 | 89 | 929.5 |
| 20260506235401 | 51 | 304 | 0.0 | 0.9 | 0.00 | 0.00 | 0.00 | 89 | 929.4 |
| 20260506235301 | 51 | 303 | 0.0 | 0.9 | 0.00 | 0.00 | 0.00 | 89 | 929.5 |
| 20260506235201 | 51 | 296 | 0.0 | 0.9 | 0.00 | 0.00 | 0.00 | 89 | 929.5 |
| 20260506235101 | 51 | 296 | 0.0 | 0.9 | 0.00 | 0.00 | 0.00 | 88 | 929.4 |
| 20260506235001 | 51 | 293 | 0.9 | 0.9 | 0.00 | 0.00 | 0.00 | 88 | 929.6 |
| 20260506234901 | 51 | 273 | 0.9 | 0.9 | 0.00 | 0.00 | 0.00 | 89 | 929.7 |
| 20260506234801 | 51 | 300 | 0.9 | 1.7 | 0.00 | 0.00 | 0.00 | 89 | 929.7 |
| 20260506234701 | 51 | 300 | 0.9 | 0.9 | 0.00 | 0.00 | 0.00 | 89 | 929.4 |
| 20260506234600 | 51 | 302 | 0.9 | 1.7 | 0.00 | 0.00 | 0.00 | 89 | 929.4 |
| 20260506234501 | 51 | 326 | 1.7 | 1.7 | 0.00 | 0.00 | 0.00 | 89 | 929.4 |
| 20260506234400 | 51 | 309 | 0.9 | 0.9 | 0.00 | 0.00 | 0.00 | 89 | 929.4 |
| 20260506234301 | 51 | 298 | 0.9 | 0.9 | 0.00 | 0.00 | 0.00 | 89 | 929.3 |
| 20260506234201 | 51 | 280 | 0.9 | 0.9 | 0.00 | 0.00 | 0.00 | 89 | 929.5 |
| 20260506234101 | 51 | 289 | 0.9 | 0.9 | 0.00 | 0.00 | 0.00 | 89 | 929.4 |
| 20260506234001 | 51 | 302 | 0.9 | 0.9 | 0.00 | 0.00 | 0.00 | 88 | 929.2 |
| 20260506233901 | 51 | 330 | 0.9 | 1.7 | 0.00 | 0.00 | 0.00 | 88 | 929.3 |
| 20260506233801 | 51 | 321 | 0.9 | 1.7 | 0.00 | 0.00 | 0.00 | 88 | 929.1 |
| 20260506233701 | 51 | 330 | 0.9 | 1.7 | 0.00 | 0.00 | 0.00 | 88 | 929.3 |
| 20260506233602 | 51 | 326 | 0.9 | 1.7 | 0.00 | 0.00 | 0.00 | 88 | 929.2 |
| 20260506233501 | 52 | 329 | 0.9 | 2.6 | 0.00 | 0.00 | 0.00 | 88 | 929.2 |
| 20260506233401 | 52 | 328 | 1.7 | 1.7 | 0.00 | 0.00 | 0.00 | 88 | 929.1 |
| 20260506233301 | 52 | 322 | 1.7 | 1.7 | 0.00 | 0.00 | 0.00 | 88 | 929.3 |
| 20260506233201 | 52 | 316 | 1.7 | 1.7 | 0.00 | 0.00 | 0.00 | 88 | 929.2 |
| 20260506233102 | 52 | 322 | 1.7 | 2.6 | 0.00 | 0.00 | 0.00 | 88 | 929.2 |
| 20260506233001 | 52 | 333 | 1.7 | 2.6 | 0.00 | 0.00 | 0.00 | 88 | 928.9 |
| 20260506232900 | 52 | 328 | 1.7 | 2.6 | 0.00 | 0.00 | 0.00 | 87 | 928.9 |
| 20260506232801 | 52 | 327 | 1.7 | 2.6 | 0.00 | 0.00 | 0.00 | 87 | 929.1 |
| 20260506232701 | 52 | 331 | 2.6 | 2.6 | 0.00 | 0.00 | 0.00 | 88 | 928.9 |
| 20260506232600 | 52 | 347 | 2.6 | 2.6 | 0.00 | 0.00 | 0.00 | 88 | 928.9 |
| 20260506232500 | 52 | 334 | 1.7 | 2.6 | 0.00 | 0.00 | 0.00 | 88 | 928.9 |
| 20260506232401 | 52 | 343 | 2.6 | 2.6 | 0.00 | 0.00 | 0.00 | 88 | 929.0 |
| 20260506232301 | 52 | 348 | 1.7 | 1.7 | 0.00 | 0.00 | 0.00 | 87 | 928.9 |
| 20260506232201 | 52 | 352 | 1.7 | 2.6 | 0.00 | 0.00 | 0.00 | 87 | 929.0 |
| 20260506232100 | 52 | 344 | 1.7 | 2.6 | 0.00 | 0.00 | 0.00 | 87 | 928.8 |
| 20260506232001 | 52 | 342 | 2.6 | 2.6 | 0.00 | 0.00 | 0.00 | 87 | 928.7 |
| 20260506231901 | 52 | 349 | 2.6 | 3.5 | 0.00 | 0.00 | 0.00 | 87 | 928.7 |
| 20260506231801 | 52 | 351 | 2.6 | 3.5 | 0.00 | 0.00 | 0.00 | 87 | 928.5 |
| 20260506231701 | 52 | 63 | 2.6 | 2.6 | 0.00 | 0.00 | 0.00 | 87 | 928.7 |
| 20260506231601 | 52 | 352 | 1.7 | 2.6 | 0.00 | 0.00 | 0.00 | 87 | 928.3 |
| 20260506231501 | 52 | 20 | 1.7 | 2.6 | 0.00 | 0.00 | 0.00 | 87 | 928.2 |
| 20260506231401 | 52 | 337 | 1.7 | 2.6 | 0.00 | 0.00 | 0.00 | 87 | 928.3 |
| 20260506231301 | 52 | 0 | 1.7 | 2.6 | 0.00 | 0.00 | 0.00 | 87 | 928.2 |
| 20260506231201 | 52 | 45 | 2.6 | 2.6 | 0.00 | 0.00 | 0.00 | 87 | 928.1 |
| 20260506231100 | 52 | 18 | 1.7 | 3.5 | 0.00 | 0.00 | 0.00 | 87 | 928.3 |
| 20260506231001 | 52 | 14 | 1.7 | 3.5 | 0.00 | 0.00 | 0.00 | 87 | 928.2 |
| 20260506230901 | 52 | 31 | 2.6 | 3.5 | 0.00 | 0.00 | 0.00 | 87 | 928.2 |
| 20260506230801 | 52 | 3 | 2.6 | 3.5 | 0.00 | 0.00 | 0.00 | 87 | 928.4 |
| 20260506230701 | 52 | 17 | 2.6 | 3.5 | 0.00 | 0.00 | 0.00 | 87 | 928.2 |
| 20260506230601 | 52 | 43 | 2.6 | 3.5 | 0.00 | 0.00 | 0.00 | 87 | 928.4 |
| 20260506230501 | 52 | 355 | 2.6 | 2.6 | 0.00 | 0.00 | 0.00 | 87 | 928.2 |
| 20260506230400 | 52 | 28 | 2.6 | 3.5 | 0.00 | 0.00 | 0.00 | 88 | 928.3 |
| 20260506230302 | 52 | 28 | 2.6 | 3.5 | 0.00 | 0.00 | 0.00 | 88 | 928.3 |
| 20260506230201 | 52 | 353 | 2.6 | 3.5 | 0.00 | 0.00 | 0.00 | 88 | 928.2 |
| 20260506230101 | 52 | 9 | 2.6 | 2.6 | 0.00 | 0.00 | 0.00 | 88 | 928.1 |
| 20260506230001 | 52 | 22 | 1.7 | 3.5 | 0.00 | 0.00 | 0.00 | 88 | 928.4 |
| 20260506225901 | 52 | 14 | 1.7 | 3.5 | 0.00 | 0.00 | 0.00 | 88 | 928.3 |
| 20260506225800 | 52 | 10 | 1.7 | 3.5 | 0.00 | 0.00 | 0.00 | 88 | 928.3 |
| 20260506225701 | 52 | 351 | 2.6 | 3.5 | 0.00 | 0.00 | 0.00 | 88 | 928.4 |
| 20260506225601 | 52 | 353 | 2.6 | 3.5 | 0.00 | 0.00 | 0.00 | 89 | 928.6 |
| 20260506225501 | 52 | 350 | 3.5 | 3.5 | 0.00 | 0.00 | 0.00 | 89 | 928.3 |
| 20260506225401 | 52 | 0 | 1.7 | 2.6 | 0.00 | 0.00 | 0.00 | 90 | 928.4 |
| 20260506225301 | 52 | 347 | 1.7 | 2.6 | 0.00 | 0.00 | 0.00 | 90 | 928.5 |
| 20260506225202 | 52 | 347 | 1.7 | 2.6 | 0.00 | 0.00 | 0.00 | 90 | 928.6 |
| 20260506225100 | 52 | 344 | 1.7 | 2.6 | 0.00 | 0.00 | 0.00 | 90 | 928.3 |
| 20260506225001 | 52 | 339 | 1.7 | 3.5 | 0.00 | 0.00 | 0.00 | 90 | 928.5 |
| 20260506224901 | 52 | 328 | 2.6 | 3.5 | 0.00 | 0.00 | 0.00 | 90 | 928.3 |
| 20260506224801 | 52 | 334 | 2.6 | 3.5 | 0.00 | 0.00 | 0.00 | 91 | 928.3 |
| 20260506224701 | 52 | 335 | 3.5 | 3.5 | 0.00 | 0.00 | 0.00 | 91 | 928.5 |
| 20260506224601 | 52 | 337 | 2.6 | 3.5 | 0.00 | 0.00 | 0.00 | 91 | 928.3 |
| 20260506224501 | 52 | 328 | 2.6 | 3.5 | 0.00 | 0.00 | 0.00 | 91 | 928.7 |
| 20260506224401 | 52 | 334 | 3.5 | 3.5 | 0.00 | 0.00 | 0.00 | 91 | 928.4 |
| 20260506224301 | 52 | 338 | 2.6 | 3.5 | 0.00 | 0.00 | 0.00 | 91 | 928.4 |
| 20260506224201 | 52 | 330 | 3.5 | 4.3 | 0.00 | 0.00 | 0.00 | 91 | 928.4 |
| 20260506224101 | 52 | 324 | 3.5 | 4.3 | 0.00 | 0.00 | 0.00 | 92 | 928.5 |
| 20260506224001 | 52 | 338 | 2.6 | 3.5 | 0.00 | 0.00 | 0.00 | 92 | 928.6 |
| 20260506223901 | 52 | 322 | 3.5 | 3.5 | 0.00 | 0.00 | 0.00 | 92 | 928.6 |
| 20260506223801 | 52 | 336 | 2.6 | 3.5 | 0.00 | 0.00 | 0.00 | 92 | 928.4 |
| 20260506223700 | 52 | 332 | 2.6 | 3.5 | 0.00 | 0.00 | 0.00 | 92 | 928.4 |
| 20260506223601 | 52 | 327 | 2.6 | 3.5 | 0.00 | 0.00 | 0.00 | 92 | 928.5 |
| 20260506223501 | 52 | 335 | 2.6 | 3.5 | 0.00 | 0.00 | 0.00 | 92 | 928.5 |
| 20260506223402 | 52 | 329 | 2.6 | 4.3 | 0.00 | 0.00 | 0.00 | 92 | 928.5 |
| 20260506223300 | 52 | 331 | 3.5 | 4.3 | 0.00 | 0.00 | 0.00 | 92 | 928.4 |
| 20260506223201 | 52 | 330 | 2.6 | 4.3 | 0.00 | 0.00 | 0.00 | 92 | 928.5 |
| 20260506223100 | 52 | 333 | 3.5 | 4.3 | 0.00 | 0.00 | 0.00 | 92 | 928.4 |
| 20260506223001 | 52 | 344 | 2.6 | 3.5 | 0.00 | 0.00 | 0.00 | 92 | 928.6 |
| 20260506222901 | 52 | 328 | 3.5 | 4.3 | 0.00 | 0.00 | 0.00 | 92 | 928.7 |
| 20260506222801 | 52 | 335 | 2.6 | 4.3 | 0.00 | 0.00 | 0.00 | 92 | 928.6 |
| 20260506222700 | 52 | 322 | 2.6 | 4.3 | 0.00 | 0.00 | 0.00 | 92 | 928.6 |
| 20260506222600 | 52 | 308 | 3.5 | 5.2 | 0.00 | 0.00 | 0.00 | 92 | 928.4 |
| 20260506222500 | 52 | 307 | 3.5 | 5.2 | 0.00 | 0.00 | 0.00 | 92 | 928.6 |
| 20260506222400 | 52 | 324 | 3.5 | 5.2 | 0.00 | 0.00 | 0.00 | 92 | 928.4 |
| 20260506222301 | 52 | 333 | 2.6 | 4.3 | 0.00 | 0.00 | 0.00 | 92 | 928.7 |
| 20260506222202 | 52 | 322 | 3.5 | 4.3 | 0.00 | 0.00 | 0.00 | 93 | 928.5 |
| 20260506222101 | 51 | 326 | 2.6 | 4.3 | 0.00 | 0.00 | 0.00 | 93 | 928.5 |
| 20260506222001 | 51 | 323 | 4.3 | 4.3 | 0.00 | 0.00 | 0.00 | 93 | 928.7 |
| 20260506221902 | 51 | 327 | 3.5 | 5.2 | 0.00 | 0.00 | 0.00 | 93 | 928.7 |
| 20260506221801 | 51 | 322 | 3.5 | 5.2 | 0.00 | 0.00 | 0.00 | 94 | 928.7 |
| 20260506221701 | 51 | 321 | 3.5 | 5.2 | 0.00 | 0.00 | 0.00 | 94 | 928.8 |
| 20260506221601 | 51 | 328 | 3.5 | 4.3 | 0.00 | 0.00 | 0.00 | 94 | 928.6 |
| 20260506221501 | 51 | 326 | 3.5 | 3.5 | 0.00 | 0.00 | 0.00 | 94 | 928.7 |
| 20260506221401 | 51 | 319 | 3.5 | 5.2 | 0.00 | 0.00 | 0.00 | 94 | 928.9 |
| 20260506221301 | 51 | 320 | 3.5 | 3.5 | 0.00 | 0.00 | 0.00 | 94 | 928.5 |
| 20260506221202 | 51 | 319 | 1.7 | 3.5 | 0.00 | 0.00 | 0.00 | 94 | 928.7 |
| 20260506221101 | 51 | 325 | 1.7 | 2.6 | 0.00 | 0.00 | 0.00 | 94 | 928.9 |
| 20260506221001 | 51 | 325 | 2.6 | 3.5 | 0.00 | 0.00 | 0.00 | 94 | 928.7 |
| 20260506220901 | 51 | 315 | 2.6 | 3.5 | 0.00 | 0.00 | 0.00 | 94 | 928.7 |
| 20260506220802 | 51 | 338 | 1.7 | 3.5 | 0.00 | 0.00 | 0.00 | 94 | 928.8 |
| 20260506220701 | 51 | 301 | 1.7 | 3.5 | 0.00 | 0.00 | 0.00 | 94 | 928.6 |
| 20260506220601 | 51 | 310 | 1.7 | 3.5 | 0.00 | 0.00 | 0.00 | 94 | 928.8 |
| 20260506220501 | 51 | 302 | 1.7 | 4.3 | 0.00 | 0.00 | 0.00 | 94 | 928.7 |
| 20260506220401 | 51 | 306 | 1.7 | 4.3 | 0.00 | 0.00 | 0.00 | 94 | 928.9 |
| 20260506220301 | 51 | 316 | 2.6 | 5.2 | 0.00 | 0.00 | 0.00 | 94 | 928.8 |
| 20260506220201 | 51 | 319 | 1.7 | 5.2 | 0.00 | 0.00 | 0.00 | 94 | 928.8 |
| 20260506220100 | 51 | 311 | 1.7 | 2.6 | 0.00 | 0.00 | 0.02 | 94 | 928.8 |
| 20260506220001 | 51 | 311 | 1.7 | 2.6 | 0.00 | 0.00 | 0.02 | 94 | 928.8 |
| 20260506215901 | 51 | 300 | 1.7 | 2.6 | 0.00 | 0.00 | 0.02 | 94 | 928.8 |
| 20260506215801 | 51 | 305 | 1.7 | 2.6 | 0.00 | 0.00 | 0.02 | 94 | 928.8 |
| 20260506215702 | 51 | 306 | 0.9 | 2.6 | 0.00 | 0.00 | 0.02 | 94 | 928.7 |
| 20260506215600 | 51 | 301 | 1.7 | 2.6 | 0.00 | 0.00 | 0.02 | 94 | 928.8 |
| 20260506215501 | 51 | 308 | 1.7 | 3.5 | 0.00 | 0.00 | 0.02 | 94 | 928.8 |
| 20260506215401 | 51 | 314 | 2.6 | 3.5 | 0.00 | 0.00 | 0.02 | 94 | 928.9 |
| 20260506215301 | 51 | 311 | 1.7 | 1.7 | 0.00 | 0.00 | 0.02 | 94 | 928.9 |
| 20260506215201 | 51 | 310 | 0.9 | 1.7 | 0.00 | 0.00 | 0.02 | 94 | 928.8 |
| 20260506215101 | 51 | 306 | 1.7 | 2.6 | 0.00 | 0.00 | 0.02 | 94 | 928.8 |
| 20260506215000 | 51 | 278 | 1.7 | 5.2 | 0.00 | 0.00 | 0.02 | 94 | 928.9 |
| 20260506214901 | 51 | 304 | 3.5 | 5.2 | 0.00 | 0.00 | 0.02 | 93 | 928.9 |
| 20260506214801 | 51 | 305 | 1.7 | 3.5 | 0.00 | 0.00 | 0.02 | 93 | 928.9 |
| 20260506214702 | 51 | 310 | 1.7 | 3.5 | 0.00 | 0.00 | 0.02 | 93 | 928.5 |
| 20260506214601 | 51 | 298 | 1.7 | 2.6 | 0.00 | 0.00 | 0.02 | 93 | 928.7 |
| 20260506214501 | 51 | 297 | 1.7 | 2.6 | 0.00 | 0.00 | 0.02 | 92 | 928.7 |
| 20260506214401 | 51 | 306 | 1.7 | 2.6 | 0.00 | 0.00 | 0.02 | 92 | 928.9 |
| 20260506214301 | 51 | 295 | 1.7 | 2.6 | 0.00 | 0.00 | 0.02 | 92 | 928.8 |
| 20260506214201 | 51 | 280 | 1.7 | 2.6 | 0.00 | 0.00 | 0.02 | 92 | 928.8 |
| 20260506214101 | 51 | 308 | 1.7 | 2.6 | 0.00 | 0.00 | 0.02 | 92 | 928.9 |
| 20260506214001 | 51 | 283 | 0.9 | 1.7 | 0.00 | 0.00 | 0.02 | 92 | 928.8 |
| 20260506213901 | 51 | 300 | 1.7 | 1.7 | 0.00 | 0.00 | 0.02 | 91 | 928.8 |
| 20260506213801 | 51 | 296 | 1.7 | 2.6 | 0.00 | 0.00 | 0.02 | 91 | 928.7 |
| 20260506213701 | 51 | 291 | 1.7 | 2.6 | 0.00 | 0.00 | 0.02 | 91 | 928.6 |
| 20260506213601 | 51 | 285 | 1.7 | 2.6 | 0.00 | 0.00 | 0.02 | 91 | 928.6 |
| 20260506213502 | 51 | 288 | 1.7 | 2.6 | 0.00 | 0.00 | 0.02 | 92 | 928.7 |
| 20260506213401 | 51 | 276 | 1.7 | 2.6 | 0.00 | 0.00 | 0.02 | 91 | 928.7 |
| 20260506213301 | 51 | 300 | 1.7 | 2.6 | 0.00 | 0.00 | 0.02 | 91 | 928.6 |
| 20260506213201 | 51 | 292 | 0.9 | 1.7 | 0.00 | 0.00 | 0.02 | 91 | 928.6 |
| 20260506213101 | 51 | 278 | 0.9 | 1.7 | 0.00 | 0.00 | 0.02 | 91 | 928.5 |
| 20260506213001 | 51 | 276 | 0.9 | 0.9 | 0.00 | 0.00 | 0.02 | 91 | 928.5 |
| 20260506212901 | 51 | 271 | 0.9 | 0.9 | 0.00 | 0.00 | 0.02 | 90 | 928.4 |
| 20260506212801 | 51 | 293 | 0.9 | 0.9 | 0.00 | 0.00 | 0.02 | 90 | 928.4 |
| 20260506212701 | 51 | 309 | 0.9 | 0.9 | 0.00 | 0.00 | 0.02 | 90 | 928.0 |
| 20260506212602 | 51 | 317 | 0.9 | 1.7 | 0.00 | 0.00 | 0.02 | 90 | 928.0 |
| 20260506212501 | 51 | 320 | 0.9 | 1.7 | 0.00 | 0.00 | 0.02 | 90 | 928.1 |
| 20260506212401 | 51 | 325 | 0.9 | 1.7 | 0.00 | 0.00 | 0.02 | 90 | 927.9 |
| 20260506212301 | 51 | 325 | 1.7 | 1.7 | 0.00 | 0.00 | 0.02 | 91 | 927.7 |
| 20260506212201 | 51 | 328 | 1.7 | 1.7 | 0.00 | 0.00 | 0.02 | 90 | 928.0 |
| 20260506212101 | 51 | 328 | 1.7 | 1.7 | 0.00 | 0.00 | 0.02 | 90 | 927.8 |
| 20260506212001 | 51 | 326 | 1.7 | 1.7 | 0.00 | 0.00 | 0.02 | 90 | 927.8 |
| 20260506211901 | 51 | 323 | 1.7 | 1.7 | 0.00 | 0.00 | 0.02 | 90 | 927.6 |
| 20260506211801 | 52 | 340 | 1.7 | 1.7 | 0.00 | 0.00 | 0.02 | 89 | 927.5 |
| 20260506211701 | 52 | 333 | 1.7 | 1.7 | 0.00 | 0.00 | 0.02 | 89 | 927.5 |
| 20260506211601 | 52 | 346 | 1.7 | 1.7 | 0.00 | 0.00 | 0.02 | 89 | 927.6 |
| 20260506211201 | 52 | 18 | 1.7 | 1.7 | 0.00 | 0.00 | 0.02 | 89 | 927.4 |
| 20260506211101 | 52 | 40 | 0.9 | 1.7 | 0.00 | 0.00 | 0.02 | 89 | 927.2 |
| 20260506211001 | 52 | 37 | 0.9 | 1.7 | 0.00 | 0.00 | 0.02 | 89 | 927.1 |
| 20260506210901 | 52 | 45 | 1.7 | 1.7 | 0.00 | 0.00 | 0.02 | 89 | 927.3 |
| 20260506210801 | 52 | 49 | 1.7 | 2.6 | 0.00 | 0.00 | 0.02 | 89 | 927.1 |
| 20260506210700 | 52 | 48 | 1.7 | 2.6 | 0.00 | 0.00 | 0.02 | 89 | 927.3 |
| 20260506210601 | 52 | 68 | 0.9 | 1.7 | 0.00 | 0.00 | 0.02 | 89 | 927.4 |
| 20260506210501 | 52 | 57 | 1.7 | 1.7 | 0.00 | 0.00 | 0.02 | 88 | 927.1 |
| 20260506210402 | 52 | 50 | 1.7 | 1.7 | 0.00 | 0.00 | 0.02 | 88 | 927.3 |
| 20260506210301 | 52 | 65 | 0.9 | 1.7 | 0.00 | 0.00 | 0.02 | 88 | 927.2 |
| 20260506210201 | 52 | 58 | 0.9 | 1.7 | 0.00 | 0.00 | 0.02 | 88 | 927.1 |
| 20260506210001 | 52 | 82 | 0.9 | 1.7 | 0.00 | 0.00 | 0.02 | 88 | 927.2 |
| 20260506205901 | 52 | 54 | 0.9 | 1.7 | 0.00 | 0.00 | 0.02 | 88 | 927.2 |
| 20260506205801 | 52 | 72 | 0.9 | 1.7 | 0.00 | 0.00 | 0.02 | 88 | 927.2 |
| 20260506205700 | 52 | 66 | 0.9 | 1.7 | 0.00 | 0.00 | 0.02 | 88 | 927.1 |
| 20260506205601 | 53 | 56 | 0.9 | 1.7 | 0.00 | 0.00 | 0.02 | 88 | 927.3 |
| 20260506205501 | 53 | 71 | 0.9 | 1.7 | 0.00 | 0.00 | 0.02 | 88 | 927.1 |
| 20260506205400 | 53 | 49 | 0.9 | 1.7 | 0.00 | 0.00 | 0.02 | 88 | 927.2 |
| 20260506205305 | 53 | 82 | 0.9 | 1.7 | 0.00 | 0.00 | 0.02 | 88 | 927.2 |
| 20260506205201 | 53 | 69 | 0.9 | 1.7 | 0.00 | 0.00 | 0.02 | 88 | 927.2 |
| 20260506205100 | 53 | 91 | 0.9 | 1.7 | 0.00 | 0.00 | 0.02 | 88 | 927.0 |
| 20260506205001 | 52 | 65 | 1.7 | 2.6 | 0.00 | 0.00 | 0.02 | 88 | 927.2 |
| 20260506204901 | 52 | 75 | 1.7 | 2.6 | 0.00 | 0.00 | 0.02 | 88 | 927.2 |
| 20260506204801 | 52 | 60 | 1.7 | 2.6 | 0.00 | 0.00 | 0.02 | 88 | 927.1 |
| 20260506204701 | 52 | 56 | 1.7 | 2.6 | 0.00 | 0.00 | 0.02 | 88 | 927.3 |
| 20260506204602 | 52 | 60 | 0.9 | 1.7 | 0.00 | 0.00 | 0.02 | 89 | 927.3 |
| 20260506204501 | 52 | 58 | 1.7 | 1.7 | 0.00 | 0.00 | 0.02 | 88 | 927.1 |
| 20260506204401 | 52 | 43 | 1.7 | 1.7 | 0.00 | 0.00 | 0.02 | 88 | 927.0 |
| 20260506204301 | 52 | 75 | 0.9 | 2.6 | 0.00 | 0.00 | 0.02 | 88 | 927.4 |
| 20260506204200 | 53 | 37 | 1.7 | 1.7 | 0.00 | 0.00 | 0.02 | 88 | 927.3 |
| 20260506204101 | 53 | 56 | 1.7 | 2.6 | 0.00 | 0.00 | 0.02 | 88 | 927.4 |
| 20260506204001 | 53 | 59 | 1.7 | 2.6 | 0.00 | 0.00 | 0.02 | 88 | 927.4 |
| 20260506203901 | 53 | 53 | 1.7 | 2.6 | 0.00 | 0.00 | 0.02 | 88 | 927.2 |
| 20260506203801 | 53 | 55 | 1.7 | 2.6 | 0.00 | 0.00 | 0.02 | 87 | 927.0 |
| 20260506203701 | 53 | 48 | 1.7 | 2.6 | 0.00 | 0.00 | 0.02 | 87 | 927.1 |
| 20260506203600 | 53 | 42 | 1.7 | 2.6 | 0.00 | 0.00 | 0.02 | 87 | 927.3 |
| 20260506203501 | 53 | 42 | 1.7 | 3.5 | 0.00 | 0.00 | 0.02 | 87 | 927.2 |
| 20260506203401 | 52 | 41 | 2.6 | 3.5 | 0.00 | 0.00 | 0.02 | 88 | 927.0 |
| 20260506203301 | 52 | 55 | 2.6 | 2.6 | 0.00 | 0.00 | 0.02 | 88 | 927.1 |
| 20260506203201 | 52 | 46 | 2.6 | 2.6 | 0.00 | 0.00 | 0.02 | 88 | 927.1 |
| 20260506203101 | 52 | 44 | 1.7 | 3.5 | 0.00 | 0.00 | 0.02 | 88 | 927.1 |
| 20260506203001 | 52 | 56 | 1.7 | 2.6 | 0.00 | 0.00 | 0.02 | 88 | 927.2 |
| 20260506202901 | 52 | 16 | 1.7 | 2.6 | 0.00 | 0.00 | 0.02 | 88 | 927.0 |
| 20260506202801 | 52 | 69 | 1.7 | 2.6 | 0.00 | 0.00 | 0.02 | 88 | 927.2 |
| 20260506202700 | 53 | 59 | 1.7 | 2.6 | 0.00 | 0.00 | 0.02 | 88 | 927.5 |
| 20260506202601 | 53 | 66 | 1.7 | 2.6 | 0.00 | 0.00 | 0.02 | 88 | 927.3 |
| 20260506202502 | 53 | 66 | 1.7 | 2.6 | 0.00 | 0.00 | 0.02 | 88 | 927.4 |
| 20260506202401 | 53 | 102 | 1.7 | 2.6 | 0.00 | 0.00 | 0.02 | 88 | 927.2 |
| 20260506202301 | 53 | 44 | 2.6 | 2.6 | 0.00 | 0.00 | 0.02 | 87 | 927.1 |
| 20260506202201 | 53 | 60 | 1.7 | 2.6 | 0.00 | 0.00 | 0.02 | 87 | 927.4 |
| 20260506202101 | 53 | 62 | 1.7 | 2.6 | 0.00 | 0.00 | 0.02 | 87 | 927.1 |
| 20260506202000 | 53 | 56 | 0.9 | 2.6 | 0.00 | 0.00 | 0.02 | 87 | 927.4 |
| 20260506201901 | 53 | 81 | 0.9 | 1.7 | 0.00 | 0.00 | 0.02 | 87 | 927.4 |
| 20260506201801 | 53 | 70 | 0.9 | 2.6 | 0.00 | 0.00 | 0.02 | 86 | 927.3 |
| 20260506201701 | 53 | 47 | 1.7 | 2.6 | 0.00 | 0.00 | 0.02 | 86 | 927.3 |
| 20260506201601 | 53 | 55 | 1.7 | 1.7 | 0.00 | 0.00 | 0.02 | 86 | 927.3 |
| 20260506201501 | 53 | 35 | 1.7 | 2.6 | 0.00 | 0.00 | 0.02 | 86 | 927.5 |
| 20260506201401 | 53 | 58 | 1.7 | 2.6 | 0.00 | 0.00 | 0.02 | 86 | 927.5 |
| 20260506201301 | 53 | 58 | 0.9 | 2.6 | 0.00 | 0.00 | 0.02 | 86 | 927.3 |
| 20260506201201 | 53 | 57 | 1.7 | 2.6 | 0.00 | 0.00 | 0.02 | 86 | 927.3 |
| 20260506201102 | 53 | 51 | 1.7 | 2.6 | 0.00 | 0.00 | 0.02 | 86 | 927.3 |
| 20260506201001 | 53 | 46 | 2.6 | 2.6 | 0.00 | 0.00 | 0.02 | 86 | 927.3 |
| 20260506200901 | 53 | 5 | 1.7 | 2.6 | 0.00 | 0.00 | 0.02 | 86 | 927.2 |
| 20260506200801 | 53 | 37 | 2.6 | 2.6 | 0.00 | 0.00 | 0.02 | 86 | 927.4 |
| 20260506200701 | 53 | 39 | 1.7 | 3.5 | 0.00 | 0.00 | 0.02 | 86 | 927.1 |
| 20260506200601 | 53 | 65 | 2.6 | 3.5 | 0.00 | 0.00 | 0.02 | 86 | 927.5 |
| 20260506200501 | 53 | 44 | 2.6 | 3.5 | 0.00 | 0.00 | 0.02 | 87 | 927.4 |
| 20260506200401 | 53 | 21 | 1.7 | 3.5 | 0.00 | 0.00 | 0.02 | 87 | 927.2 |
| 20260506200301 | 53 | 35 | 1.7 | 3.5 | 0.00 | 0.00 | 0.02 | 87 | 927.3 |
| 20260506200201 | 53 | 352 | 2.6 | 3.5 | 0.00 | 0.00 | 0.02 | 87 | 927.4 |
| 20260506200101 | 53 | 37 | 2.6 | 3.5 | 0.00 | 0.00 | 0.02 | 87 | 927.3 |
| 20260506200001 | 53 | 44 | 2.6 | 3.5 | 0.00 | 0.00 | 0.02 | 87 | 927.3 |
| 20260506195901 | 53 | 44 | 2.6 | 3.5 | 0.00 | 0.00 | 0.02 | 87 | 927.3 |
| 20260506195801 | 53 | 11 | 2.6 | 2.6 | 0.00 | 0.00 | 0.02 | 87 | 927.3 |
| 20260506195701 | 53 | 44 | 2.6 | 2.6 | 0.00 | 0.00 | 0.02 | 86 | 927.5 |
| 20260506195601 | 53 | 59 | 2.6 | 3.5 | 0.00 | 0.00 | 0.02 | 86 | 927.4 |
| 20260506195501 | 53 | 38 | 2.6 | 3.5 | 0.00 | 0.00 | 0.02 | 86 | 927.3 |
| 20260506195401 | 53 | 44 | 1.7 | 3.5 | 0.00 | 0.00 | 0.02 | 86 | 927.4 |
| 20260506195300 | 53 | 43 | 1.7 | 3.5 | 0.00 | 0.00 | 0.02 | 86 | 927.6 |
| 20260506195200 | 53 | 50 | 2.6 | 3.5 | 0.00 | 0.00 | 0.02 | 86 | 927.4 |
| 20260506195101 | 53 | 35 | 2.6 | 4.3 | 0.00 | 0.00 | 0.02 | 86 | 927.5 |
| 20260506195001 | 53 | 50 | 3.5 | 4.3 | 0.00 | 0.00 | 0.02 | 86 | 927.3 |
| 20260506194901 | 53 | 14 | 2.6 | 3.5 | 0.00 | 0.00 | 0.02 | 85 | 927.5 |
| 20260506194800 | 53 | 56 | 3.5 | 3.5 | 0.00 | 0.00 | 0.02 | 85 | 927.5 |
| 20260506194701 | 53 | 42 | 1.7 | 3.5 | 0.00 | 0.00 | 0.02 | 85 | 927.7 |
| 20260506194600 | 53 | 46 | 2.6 | 3.5 | 0.00 | 0.00 | 0.02 | 85 | 927.5 |
| 20260506194501 | 53 | 18 | 2.6 | 3.5 | 0.00 | 0.00 | 0.02 | 85 | 927.4 |
| 20260506194401 | 53 | 35 | 2.6 | 4.3 | 0.00 | 0.00 | 0.02 | 85 | 927.6 |
| 20260506194300 | 53 | 30 | 3.5 | 4.3 | 0.00 | 0.00 | 0.02 | 85 | 927.5 |
| 20260506194201 | 53 | 48 | 2.6 | 3.5 | 0.00 | 0.00 | 0.02 | 85 | 927.6 |
| 20260506194101 | 53 | 2 | 2.6 | 3.5 | 0.00 | 0.00 | 0.02 | 85 | 927.5 |
| 20260506194001 | 53 | 55 | 1.7 | 3.5 | 0.00 | 0.00 | 0.02 | 85 | 927.3 |
| 20260506193901 | 53 | 36 | 2.6 | 3.5 | 0.00 | 0.00 | 0.02 | 85 | 927.2 |
| 20260506193801 | 53 | 41 | 2.6 | 4.3 | 0.00 | 0.00 | 0.02 | 85 | 927.5 |
| 20260506193701 | 53 | 11 | 3.5 | 4.3 | 0.00 | 0.00 | 0.02 | 84 | 927.4 |
| 20260506193601 | 53 | 47 | 3.5 | 5.2 | 0.00 | 0.00 | 0.02 | 84 | 927.5 |
| 20260506193501 | 53 | 41 | 2.6 | 5.2 | 0.00 | 0.00 | 0.02 | 84 | 927.6 |
| 20260506193400 | 53 | 25 | 3.5 | 4.3 | 0.00 | 0.00 | 0.02 | 85 | 927.4 |
| 20260506193300 | 53 | 69 | 1.7 | 3.5 | 0.00 | 0.00 | 0.02 | 86 | 927.4 |
| 20260506193201 | 53 | 30 | 2.6 | 4.3 | 0.00 | 0.00 | 0.02 | 86 | 927.5 |
| 20260506193101 | 53 | 50 | 2.6 | 4.3 | 0.00 | 0.00 | 0.02 | 86 | 927.1 |
| 20260506193001 | 53 | 34 | 2.6 | 3.5 | 0.00 | 0.00 | 0.02 | 86 | 927.4 |
| 20260506192901 | 53 | 35 | 2.6 | 3.5 | 0.00 | 0.00 | 0.02 | 87 | 927.6 |
| 20260506192801 | 53 | 16 | 3.5 | 3.5 | 0.00 | 0.00 | 0.02 | 87 | 927.4 |
| 20260506192701 | 53 | 46 | 2.6 | 3.5 | 0.00 | 0.00 | 0.02 | 88 | 927.5 |
| 20260506192601 | 53 | 34 | 2.6 | 2.6 | 0.00 | 0.00 | 0.02 | 88 | 927.6 |
| 20260506192501 | 53 | 35 | 2.6 | 4.3 | 0.00 | 0.00 | 0.02 | 88 | 927.6 |
| 20260506192401 | 53 | 34 | 3.5 | 4.3 | 0.00 | 0.00 | 0.02 | 88 | 927.3 |
| 20260506192300 | 53 | 27 | 3.5 | 3.5 | 0.00 | 0.00 | 0.02 | 88 | 927.6 |
| 20260506192201 | 53 | 68 | 2.6 | 3.5 | 0.00 | 0.00 | 0.02 | 88 | 927.5 |
| 20260506192101 | 53 | 26 | 3.5 | 3.5 | 0.00 | 0.00 | 0.02 | 88 | 927.5 |
| 20260506192001 | 54 | 23 | 3.5 | 3.5 | 0.00 | 0.00 | 0.02 | 88 | 927.3 |
| 20260506191901 | 54 | 30 | 3.5 | 5.2 | 0.00 | 0.00 | 0.02 | 88 | 927.4 |
| 20260506191801 | 54 | 32 | 4.3 | 5.2 | 0.00 | 0.00 | 0.02 | 89 | 927.4 |
| 20260506191701 | 54 | 37 | 3.5 | 4.3 | 0.00 | 0.00 | 0.02 | 89 | 927.4 |
| 20260506191601 | 54 | 54 | 2.6 | 4.3 | 0.00 | 0.00 | 0.02 | 89 | 927.3 |
| 20260506191501 | 54 | 33 | 3.5 | 4.3 | 0.00 | 0.00 | 0.02 | 89 | 927.2 |
| 20260506191401 | 54 | 24 | 2.6 | 4.3 | 0.00 | 0.00 | 0.02 | 89 | 927.2 |
| 20260506191301 | 54 | 2 | 1.7 | 3.5 | 0.00 | 0.00 | 0.02 | 89 | 927.3 |
| 20260506191102 | 53 | 33 | 2.6 | 4.3 | 0.00 | 0.00 | 0.02 | 90 | 927.3 |
| 20260506190902 | 53 | 24 | 1.7 | 3.5 | 0.00 | 0.00 | 0.02 | 91 | 927.4 |
| 20260506190701 | 53 | 31 | 2.6 | 3.5 | 0.00 | 0.00 | 0.02 | 92 | 927.4 |
| 20260506190601 | 53 | 48 | 2.6 | 3.5 | 0.00 | 0.00 | 0.02 | 92 | 927.5 |
| 20260506190501 | 53 | 41 | 2.6 | 4.3 | 0.00 | 0.00 | 0.02 | 92 | 927.4 |
| 20260506190401 | 53 | 21 | 2.6 | 4.3 | 0.00 | 0.00 | 0.02 | 93 | 927.4 |
| 20260506190301 | 53 | 47 | 2.6 | 3.5 | 0.00 | 0.00 | 0.02 | 92 | 927.5 |
| 20260506190201 | 53 | 27 | 2.6 | 3.5 | 0.00 | 0.00 | 0.02 | 92 | 927.5 |
| 20260506190101 | 53 | 27 | 2.6 | 3.5 | 0.00 | 0.00 | 0.02 | 92 | 927.2 |
| 20260506190001 | 53 | 39 | 3.5 | 4.3 | 0.00 | 0.00 | 0.02 | 93 | 927.6 |
| 20260506185901 | 53 | 49 | 2.6 | 4.3 | 0.00 | 0.00 | 0.02 | 93 | 927.5 |
| 20260506185801 | 53 | 49 | 2.6 | 4.3 | 0.00 | 0.00 | 0.02 | 93 | 927.5 |
| 20260506185701 | 53 | 34 | 3.5 | 4.3 | 0.00 | 0.00 | 0.02 | 93 | 927.4 |
| 20260506185601 | 53 | 17 | 1.7 | 3.5 | 0.00 | 0.00 | 0.02 | 93 | 927.6 |
| 20260506185501 | 53 | 37 | 2.6 | 3.5 | 0.00 | 0.00 | 0.02 | 93 | 927.6 |
| 20260506185401 | 53 | 29 | 2.6 | 3.5 | 0.00 | 0.00 | 0.02 | 93 | 927.5 |
| 20260506185301 | 54 | 27 | 2.6 | 4.3 | 0.00 | 0.00 | 0.02 | 93 | 927.4 |
| 20260506185201 | 54 | 16 | 2.6 | 2.6 | 0.00 | 0.00 | 0.02 | 94 | 927.2 |
| 20260506185101 | 54 | 9 | 2.6 | 3.5 | 0.00 | 0.00 | 0.02 | 94 | 927.5 |
| 20260506185002 | 54 | 340 | 3.5 | 4.3 | 0.00 | 0.00 | 0.02 | 94 | 927.7 |
| 20260506184901 | 54 | 346 | 2.6 | 3.5 | 0.00 | 0.00 | 0.02 | 94 | 927.4 |
| 20260506184801 | 54 | 20 | 1.7 | 3.5 | 0.00 | 0.00 | 0.02 | 94 | 927.4 |
| 20260506184702 | 54 | 4 | 2.6 | 3.5 | 0.00 | 0.00 | 0.02 | 94 | 927.5 |
| 20260506184600 | 54 | 26 | 2.6 | 3.5 | 0.00 | 0.00 | 0.02 | 94 | 927.5 |
| 20260506184501 | 54 | 14 | 3.5 | 3.5 | 0.00 | 0.00 | 0.02 | 94 | 927.5 |
| 20260506184401 | 54 | 352 | 2.6 | 3.5 | 0.00 | 0.00 | 0.02 | 94 | 927.5 |
| 20260506184301 | 54 | 29 | 2.6 | 2.6 | 0.00 | 0.00 | 0.02 | 94 | 927.2 |
| 20260506184201 | 54 | 354 | 2.6 | 2.6 | 0.00 | 0.00 | 0.02 | 94 | 927.3 |
| 20260506184101 | 54 | 339 | 2.6 | 2.6 | 0.00 | 0.00 | 0.02 | 94 | 927.3 |
| 20260506184001 | 54 | 8 | 2.6 | 3.5 | 0.00 | 0.00 | 0.02 | 93 | 927.2 |
| 20260506183901 | 54 | 353 | 2.6 | 3.5 | 0.00 | 0.00 | 0.02 | 93 | 927.4 |
| 20260506183801 | 54 | 355 | 2.6 | 3.5 | 0.00 | 0.00 | 0.02 | 93 | 927.4 |
| 20260506183701 | 54 | 31 | 2.6 | 3.5 | 0.00 | 0.00 | 0.02 | 93 | 927.4 |
| 20260506183600 | 54 | 344 | 2.6 | 3.5 | 0.00 | 0.00 | 0.02 | 93 | 927.4 |
| 20260506183500 | 54 | 359 | 2.6 | 4.3 | 0.00 | 0.00 | 0.02 | 93 | 927.4 |
| 20260506183400 | 54 | 12 | 3.5 | 4.3 | 0.00 | 0.00 | 0.02 | 93 | 927.4 |
| 20260506183301 | 54 | 8 | 2.6 | 3.5 | 0.00 | 0.00 | 0.02 | 94 | 927.3 |
| 20260506183201 | 54 | 353 | 2.6 | 3.5 | 0.00 | 0.00 | 0.02 | 94 | 927.4 |
| 20260506183101 | 54 | 6 | 2.6 | 3.5 | 0.00 | 0.00 | 0.02 | 94 | 927.3 |
| 20260506183002 | 55 | 34 | 2.6 | 3.5 | 0.00 | 0.00 | 0.02 | 94 | 927.2 |
| 20260506182901 | 55 | 359 | 2.6 | 2.6 | 0.00 | 0.00 | 0.02 | 94 | 927.3 |
| 20260506182801 | 55 | 30 | 2.6 | 3.5 | 0.00 | 0.00 | 0.02 | 94 | 927.5 |
| 20260506182701 | 55 | 21 | 2.6 | 3.5 | 0.00 | 0.00 | 0.02 | 94 | 927.4 |
| 20260506182601 | 55 | 15 | 2.6 | 3.5 | 0.00 | 0.00 | 0.02 | 94 | 927.4 |
| 20260506182501 | 55 | 64 | 2.6 | 2.6 | 0.00 | 0.00 | 0.02 | 94 | 927.3 |
| 20260506182401 | 55 | 12 | 2.6 | 3.5 | 0.00 | 0.00 | 0.02 | 94 | 927.4 |
| 20260506182301 | 55 | 33 | 2.6 | 2.6 | 0.00 | 0.00 | 0.02 | 94 | 927.5 |
| 20260506182201 | 55 | 350 | 2.6 | 3.5 | 0.00 | 0.00 | 0.02 | 93 | 927.4 |
| 20260506182101 | 55 | 29 | 2.6 | 3.5 | 0.00 | 0.00 | 0.02 | 93 | 927.3 |
| 20260506182001 | 55 | 8 | 2.6 | 2.6 | 0.00 | 0.00 | 0.02 | 93 | 927.3 |
| 20260506181901 | 55 | 6 | 1.7 | 2.6 | 0.00 | 0.00 | 0.02 | 93 | 927.6 |
| 20260506181801 | 55 | 351 | 2.6 | 2.6 | 0.00 | 0.00 | 0.02 | 93 | 927.4 |
| 20260506181701 | 55 | 9 | 2.6 | 2.6 | 0.00 | 0.00 | 0.02 | 93 | 927.4 |
| 20260506181601 | 55 | 20 | 2.6 | 3.5 | 0.00 | 0.00 | 0.02 | 93 | 927.3 |
| 20260506181500 | 55 | 22 | 2.6 | 3.5 | 0.00 | 0.00 | 0.02 | 93 | 927.4 |
| 20260506181401 | 55 | 13 | 2.6 | 3.5 | 0.00 | 0.00 | 0.02 | 93 | 927.3 |
| 20260506181301 | 55 | 349 | 2.6 | 3.5 | 0.00 | 0.00 | 0.02 | 93 | 927.4 |
| 20260506181201 | 55 | 17 | 1.7 | 3.5 | 0.00 | 0.00 | 0.02 | 93 | 927.4 |
| 20260506181101 | 55 | 36 | 2.6 | 2.6 | 0.00 | 0.00 | 0.02 | 93 | 927.2 |
| 20260506181001 | 55 | 33 | 2.6 | 2.6 | 0.00 | 0.00 | 0.02 | 93 | 927.3 |
| 20260506180901 | 55 | 45 | 1.7 | 2.6 | 0.00 | 0.00 | 0.02 | 93 | 927.3 |
| 20260506180802 | 55 | 26 | 2.6 | 3.5 | 0.00 | 0.00 | 0.02 | 93 | 927.2 |
| 20260506180701 | 55 | 16 | 2.6 | 3.5 | 0.00 | 0.00 | 0.02 | 93 | 927.0 |
| 20260506180601 | 55 | 295 | 2.6 | 2.6 | 0.00 | 0.00 | 0.02 | 93 | 927.2 |
| 20260506180501 | 55 | 29 | 2.6 | 3.5 | 0.00 | 0.00 | 0.02 | 93 | 927.2 |
| 20260506180401 | 55 | 28 | 2.6 | 3.5 | 0.00 | 0.00 | 0.02 | 93 | 927.3 |
| 20260506180301 | 55 | 0 | 1.7 | 2.6 | 0.00 | 0.00 | 0.02 | 93 | 927.2 |
| 20260506180201 | 55 | 15 | 1.7 | 2.6 | 0.00 | 0.00 | 0.02 | 93 | 927.3 |
| 20260506180100 | 55 | 12 | 2.6 | 3.5 | 0.00 | 0.00 | 0.02 | 93 | 927.2 |
| 20260506180001 | 55 | 6 | 2.6 | 2.6 | 0.00 | 0.00 | 0.02 | 93 | 927.5 |
| 20260506175901 | 55 | 13 | 1.7 | 2.6 | 0.00 | 0.00 | 0.02 | 93 | 927.2 |
| 20260506175801 | 55 | 28 | 2.6 | 2.6 | 0.00 | 0.00 | 0.02 | 93 | 927.3 |
| 20260506175701 | 55 | 28 | 2.6 | 2.6 | 0.00 | 0.00 | 0.02 | 93 | 927.3 |
| 20260506175605 | 55 | 1 | 1.7 | 3.5 | 0.00 | 0.00 | 0.02 | 93 | 927.4 |
| 20260506175501 | 55 | 24 | 1.7 | 3.5 | 0.00 | 0.00 | 0.02 | 93 | 927.4 |
| 20260506175401 | 55 | 22 | 2.6 | 3.5 | 0.00 | 0.00 | 0.02 | 93 | 927.4 |
| 20260506175307 | 55 | 2 | 1.7 | 3.5 | 0.00 | 0.00 | 0.02 | 93 | 927.2 |
| 20260506175201 | 55 | 16 | 2.6 | 2.6 | 0.00 | 0.00 | 0.02 | 93 | 927.3 |
| 20260506175100 | 55 | 2 | 1.7 | 3.5 | 0.00 | 0.00 | 0.02 | 93 | 927.2 |
| 20260506175001 | 55 | 5 | 2.6 | 3.5 | 0.00 | 0.00 | 0.02 | 93 | 927.2 |
| 20260506174901 | 55 | 350 | 2.6 | 3.5 | 0.00 | 0.00 | 0.02 | 93 | 927.1 |
| 20260506174801 | 55 | 33 | 1.7 | 3.5 | 0.00 | 0.00 | 0.02 | 92 | 927.3 |
| 20260506174701 | 55 | 9 | 2.6 | 2.6 | 0.00 | 0.00 | 0.02 | 92 | 926.9 |
| 20260506174601 | 55 | 25 | 2.6 | 2.6 | 0.00 | 0.00 | 0.02 | 92 | 927.1 |
| 20260506174501 | 55 | 4 | 1.7 | 2.6 | 0.00 | 0.00 | 0.02 | 91 | 927.2 |
| 20260506174401 | 55 | 353 | 1.7 | 2.6 | 0.00 | 0.00 | 0.02 | 91 | 927.2 |
| 20260506174300 | 55 | 353 | 1.7 | 2.6 | 0.00 | 0.00 | 0.02 | 91 | 927.5 |
| 20260506174201 | 55 | 352 | 1.7 | 3.5 | 0.00 | 0.00 | 0.02 | 90 | 927.2 |
| 20260506174101 | 55 | 338 | 2.6 | 3.5 | 0.00 | 0.00 | 0.02 | 90 | 927.1 |
| 20260506174001 | 55 | 349 | 3.5 | 4.3 | 0.00 | 0.00 | 0.02 | 89 | 927.2 |
| 20260506173901 | 55 | 325 | 3.5 | 4.3 | 0.00 | 0.00 | 0.02 | 89 | 927.2 |
| 20260506173801 | 55 | 337 | 2.6 | 4.3 | 0.00 | 0.00 | 0.02 | 88 | 927.2 |
| 20260506173702 | 55 | 345 | 4.3 | 4.3 | 0.00 | 0.00 | 0.02 | 88 | 927.2 |
| 20260506173601 | 55 | 335 | 3.5 | 4.3 | 0.00 | 0.00 | 0.02 | 88 | 927.1 |
| 20260506173501 | 55 | 334 | 3.5 | 3.5 | 0.00 | 0.00 | 0.02 | 87 | 927.3 |
| 20260506173401 | 55 | 321 | 2.6 | 2.6 | 0.00 | 0.00 | 0.02 | 87 | 927.1 |
| 20260506173301 | 55 | 335 | 2.6 | 2.6 | 0.00 | 0.00 | 0.02 | 86 | 927.0 |
| 20260506173206 | 56 | 351 | 1.7 | 2.6 | 0.00 | 0.00 | 0.02 | 86 | 927.2 |
| 20260506173101 | 56 | 349 | 1.7 | 2.6 | 0.00 | 0.00 | 0.02 | 86 | 927.2 |
| 20260506173001 | 56 | 349 | 1.7 | 1.7 | 0.00 | 0.00 | 0.02 | 85 | 927.1 |
| 20260506172901 | 56 | 345 | 1.7 | 1.7 | 0.00 | 0.00 | 0.02 | 85 | 927.0 |
| 20260506172800 | 56 | 331 | 1.7 | 1.7 | 0.00 | 0.00 | 0.02 | 85 | 927.1 |
| 20260506172701 | 56 | 340 | 1.7 | 1.7 | 0.00 | 0.00 | 0.02 | 85 | 927.0 |
| 20260506172601 | 56 | 342 | 1.7 | 1.7 | 0.00 | 0.00 | 0.02 | 85 | 926.8 |
| 20260506172501 | 56 | 344 | 0.9 | 1.7 | 0.00 | 0.00 | 0.02 | 84 | 926.9 |
| 20260506172401 | 56 | 353 | 0.9 | 1.7 | 0.00 | 0.00 | 0.02 | 84 | 926.9 |
| 20260506172301 | 56 | 4 | 1.7 | 1.7 | 0.00 | 0.00 | 0.02 | 83 | 926.7 |
| 20260506172201 | 56 | 17 | 0.9 | 1.7 | 0.00 | 0.00 | 0.02 | 83 | 926.8 |
| 20260506172101 | 56 | 23 | 1.7 | 1.7 | 0.00 | 0.00 | 0.02 | 83 | 927.0 |
| 20260506172001 | 56 | 4 | 0.9 | 1.7 | 0.00 | 0.00 | 0.02 | 83 | 927.0 |
| 20260506171901 | 56 | 21 | 0.9 | 1.7 | 0.00 | 0.00 | 0.02 | 82 | 926.8 |
| 20260506171802 | 56 | 7 | 0.9 | 1.7 | 0.00 | 0.00 | 0.02 | 82 | 927.1 |
| 20260506171701 | 56 | 18 | 1.7 | 1.7 | 0.00 | 0.00 | 0.02 | 82 | 926.8 |
| 20260506171601 | 56 | 14 | 0.9 | 1.7 | 0.00 | 0.00 | 0.02 | 82 | 927.0 |
| 20260506171501 | 56 | 19 | 0.9 | 1.7 | 0.00 | 0.00 | 0.02 | 82 | 926.9 |
| 20260506171400 | 56 | 35 | 0.9 | 1.7 | 0.00 | 0.00 | 0.02 | 82 | 926.9 |
| 20260506171301 | 57 | 47 | 0.9 | 1.7 | 0.00 | 0.00 | 0.02 | 81 | 927.0 |
| 20260506171202 | 57 | 27 | 0.9 | 1.7 | 0.00 | 0.00 | 0.02 | 82 | 927.0 |
| 20260506171102 | 57 | 7 | 0.9 | 1.7 | 0.00 | 0.00 | 0.02 | 81 | 926.8 |
| 20260506171001 | 57 | 52 | 0.9 | 0.9 | 0.00 | 0.00 | 0.02 | 81 | 927.0 |
| 20260506170905 | 57 | 37 | 0.9 | 0.9 | 0.00 | 0.00 | 0.02 | 81 | 926.8 |
| 20260506170801 | 57 | 24 | 0.9 | 1.7 | 0.00 | 0.00 | 0.02 | 81 | 926.7 |
| 20260506170701 | 57 | 35 | 1.7 | 1.7 | 0.00 | 0.00 | 0.02 | 81 | 926.7 |
| 20260506170601 | 57 | 34 | 1.7 | 1.7 | 0.00 | 0.00 | 0.02 | 81 | 927.0 |
| 20260506170501 | 57 | 43 | 0.9 | 1.7 | 0.00 | 0.00 | 0.02 | 81 | 926.9 |
| 20260506170401 | 57 | 45 | 0.9 | 1.7 | 0.00 | 0.00 | 0.02 | 81 | 926.8 |
| 20260506170301 | 57 | 42 | 1.7 | 1.7 | 0.00 | 0.00 | 0.02 | 81 | 926.9 |
| 20260506170201 | 57 | 11 | 1.7 | 1.7 | 0.00 | 0.00 | 0.02 | 81 | 926.9 |
| 20260506170001 | 57 | 37 | 1.7 | 1.7 | 0.00 | 0.00 | 0.02 | 81 | 926.9 |
| 20260506165901 | 57 | 35 | 1.7 | 2.6 | 0.00 | 0.00 | 0.02 | 81 | 926.9 |
| 20260506165800 | 57 | 24 | 1.7 | 2.6 | 0.00 | 0.00 | 0.02 | 80 | 926.7 |
| 20260506165701 | 57 | 24 | 1.7 | 2.6 | 0.00 | 0.00 | 0.02 | 80 | 926.7 |
| 20260506165601 | 57 | 23 | 0.9 | 2.6 | 0.00 | 0.00 | 0.02 | 81 | 926.7 |
| 20260506165501 | 57 | 42 | 1.7 | 1.7 | 0.00 | 0.00 | 0.02 | 80 | 926.8 |
| 20260506165401 | 58 | 31 | 1.7 | 2.6 | 0.00 | 0.00 | 0.02 | 80 | 926.8 |
| 20260506165301 | 58 | 19 | 1.7 | 2.6 | 0.00 | 0.00 | 0.02 | 80 | 926.9 |
| 20260506165201 | 58 | 12 | 0.9 | 1.7 | 0.00 | 0.00 | 0.02 | 80 | 926.7 |
| 20260506165101 | 58 | 42 | 0.9 | 1.7 | 0.00 | 0.00 | 0.02 | 80 | 927.1 |
| 20260506165001 | 58 | 29 | 1.7 | 1.7 | 0.00 | 0.00 | 0.02 | 80 | 926.9 |
| 20260506164901 | 58 | 42 | 0.9 | 1.7 | 0.00 | 0.00 | 0.02 | 80 | 926.9 |
| 20260506164801 | 58 | 359 | 1.7 | 2.6 | 0.00 | 0.00 | 0.02 | 80 | 926.9 |
| 20260506164701 | 58 | 39 | 1.7 | 1.7 | 0.00 | 0.00 | 0.02 | 79 | 926.7 |
| 20260506164601 | 58 | 41 | 0.9 | 1.7 | 0.00 | 0.00 | 0.02 | 80 | 926.8 |
| 20260506164501 | 58 | 41 | 0.9 | 1.7 | 0.00 | 0.00 | 0.02 | 80 | 926.7 |
| 20260506164401 | 58 | 32 | 0.9 | 1.7 | 0.00 | 0.00 | 0.02 | 80 | 926.9 |
| 20260506164301 | 58 | 15 | 0.9 | 1.7 | 0.00 | 0.00 | 0.02 | 80 | 927.0 |
| 20260506164201 | 58 | 31 | 1.7 | 2.6 | 0.00 | 0.00 | 0.02 | 80 | 926.8 |
| 20260506164101 | 58 | 53 | 0.9 | 1.7 | 0.00 | 0.00 | 0.02 | 81 | 926.8 |
| 20260506164002 | 58 | 38 | 1.7 | 2.6 | 0.00 | 0.00 | 0.02 | 81 | 927.0 |
| 20260506163901 | 58 | 25 | 1.7 | 2.6 | 0.00 | 0.00 | 0.02 | 81 | 926.9 |
| 20260506163801 | 58 | 39 | 1.7 | 2.6 | 0.00 | 0.00 | 0.02 | 81 | 926.8 |
| 20260506163701 | 58 | 18 | 1.7 | 1.7 | 0.00 | 0.00 | 0.02 | 81 | 926.9 |
| 20260506163601 | 58 | 41 | 1.7 | 2.6 | 0.00 | 0.00 | 0.02 | 81 | 927.0 |
| 20260506163501 | 58 | 42 | 1.7 | 2.6 | 0.00 | 0.00 | 0.02 | 80 | 926.9 |
| 20260506163401 | 58 | 26 | 0.9 | 1.7 | 0.00 | 0.00 | 0.02 | 81 | 927.0 |
| 20260506163301 | 58 | 42 | 0.9 | 1.7 | 0.00 | 0.00 | 0.02 | 82 | 927.0 |
| 20260506163202 | 58 | 31 | 0.9 | 2.6 | 0.00 | 0.00 | 0.02 | 82 | 926.9 |
| 20260506163101 | 58 | 34 | 1.7 | 2.6 | 0.00 | 0.00 | 0.02 | 81 | 926.9 |
| 20260506163001 | 58 | 44 | 0.9 | 1.7 | 0.00 | 0.00 | 0.02 | 82 | 927.0 |
| 20260506162901 | 58 | 39 | 0.9 | 1.7 | 0.00 | 0.00 | 0.02 | 83 | 926.9 |
| 20260506162801 | 58 | 43 | 1.7 | 1.7 | 0.00 | 0.00 | 0.02 | 82 | 927.0 |
| 20260506162701 | 58 | 40 | 1.7 | 1.7 | 0.00 | 0.00 | 0.02 | 84 | 926.9 |
| 20260506162601 | 58 | 20 | 0.9 | 1.7 | 0.00 | 0.00 | 0.02 | 85 | 926.9 |
| 20260506162501 | 58 | 25 | 1.7 | 1.7 | 0.00 | 0.00 | 0.02 | 85 | 926.7 |
| 20260506162401 | 58 | 14 | 0.9 | 1.7 | 0.00 | 0.00 | 0.02 | 85 | 926.9 |
| 20260506162301 | 58 | 7 | 0.9 | 1.7 | 0.00 | 0.00 | 0.02 | 85 | 927.0 |
| 20260506162201 | 58 | 353 | 0.9 | 1.7 | 0.00 | 0.00 | 0.02 | 85 | 927.0 |
| 20260506162101 | 58 | 358 | 0.9 | 1.7 | 0.00 | 0.00 | 0.02 | 85 | 927.1 |
| 20260506162001 | 58 | 355 | 0.9 | 1.7 | 0.00 | 0.00 | 0.02 | 85 | 927.0 |
| 20260506161901 | 58 | 14 | 0.9 | 1.7 | 0.00 | 0.00 | 0.02 | 83 | 927.1 |
| 20260506161802 | 58 | 359 | 0.9 | 1.7 | 0.00 | 0.00 | 0.02 | 83 | 927.2 |
| 20260506161701 | 58 | 40 | 0.9 | 1.7 | 0.00 | 0.00 | 0.02 | 82 | 927.1 |
| 20260506161601 | 58 | 349 | 0.9 | 1.7 | 0.00 | 0.00 | 0.02 | 81 | 926.9 |
| 20260506161500 | 58 | 9 | 1.7 | 1.7 | 0.00 | 0.00 | 0.02 | 80 | 926.9 |
| 20260506161401 | 58 | 21 | 1.7 | 2.6 | 0.00 | 0.00 | 0.02 | 80 | 927.0 |
| 20260506161301 | 58 | 42 | 0.9 | 1.7 | 0.00 | 0.00 | 0.02 | 80 | 927.0 |
| 20260506161201 | 58 | 32 | 0.9 | 1.7 | 0.00 | 0.00 | 0.02 | 81 | 927.2 |
| 20260506161101 | 58 | 354 | 0.9 | 1.7 | 0.00 | 0.00 | 0.02 | 82 | 927.2 |
| 20260506161001 | 58 | 22 | 0.9 | 1.7 | 0.00 | 0.00 | 0.02 | 82 | 927.2 |
| 20260506160901 | 58 | 2 | 1.7 | 1.7 | 0.00 | 0.00 | 0.02 | 81 | 927.1 |
| 20260506160800 | 58 | 358 | 1.7 | 1.7 | 0.00 | 0.00 | 0.02 | 83 | 927.2 |
| 20260506160701 | 58 | 346 | 0.9 | 1.7 | 0.00 | 0.00 | 0.02 | 83 | 927.4 |
| 20260506160602 | 58 | 347 | 0.9 | 1.7 | 0.00 | 0.00 | 0.02 | 82 | 927.3 |
| 20260506160404 | 58 | 356 | 0.9 | 1.7 | 0.00 | 0.00 | 0.02 | 83 | 927.3 |
| 20260506160301 | 58 | 344 | 0.9 | 1.7 | 0.00 | 0.00 | 0.02 | 82 | 927.2 |
| 20260506160207 | 58 | 325 | 0.9 | 1.7 | 0.00 | 0.00 | 0.02 | 82 | 927.2 |
| 20260506160106 | 58 | 345 | 0.9 | 1.7 | 0.00 | 0.00 | 0.02 | 82 | 927.4 |
| 20260506160002 | 58 | 321 | 1.7 | 1.7 | 0.00 | 0.00 | 0.02 | 82 | 927.4 |
| 20260506155901 | 58 | 337 | 0.9 | 1.7 | 0.00 | 0.00 | 0.02 | 82 | 927.4 |
| 20260506155800 | 58 | 331 | 1.7 | 1.7 | 0.00 | 0.00 | 0.02 | 82 | 927.3 |
| 20260506155701 | 58 | 332 | 1.7 | 1.7 | 0.00 | 0.00 | 0.02 | 81 | 927.4 |
| 20260506155601 | 58 | 332 | 1.7 | 1.7 | 0.00 | 0.00 | 0.02 | 81 | 927.4 |
| 20260506155501 | 58 | 4 | 0.9 | 1.7 | 0.00 | 0.00 | 0.02 | 81 | 927.3 |
| 20260506155401 | 58 | 4 | 0.9 | 1.7 | 0.00 | 0.00 | 0.02 | 80 | 927.3 |
| 20260506155301 | 58 | 26 | 0.9 | 2.6 | 0.00 | 0.00 | 0.02 | 80 | 927.4 |
| 20260506155201 | 58 | 1 | 1.7 | 2.6 | 0.00 | 0.00 | 0.02 | 81 | 927.1 |
| 20260506155101 | 58 | 1 | 1.7 | 2.6 | 0.00 | 0.00 | 0.02 | 79 | 927.3 |
| 20260506155001 | 58 | 27 | 2.6 | 2.6 | 0.00 | 0.00 | 0.02 | 80 | 927.2 |
| 20260506154901 | 58 | 24 | 0.9 | 1.7 | 0.00 | 0.00 | 0.02 | 81 | 927.3 |
| 20260506154801 | 58 | 34 | 0.9 | 1.7 | 0.00 | 0.00 | 0.02 | 80 | 927.2 |
| 20260506154703 | 58 | 42 | 1.7 | 1.7 | 0.00 | 0.00 | 0.02 | 80 | 927.3 |
| 20260506154601 | 58 | 49 | 1.7 | 1.7 | 0.00 | 0.00 | 0.02 | 81 | 927.4 |
| 20260506154501 | 58 | 358 | 0.9 | 2.6 | 0.00 | 0.00 | 0.02 | 80 | 927.2 |
| 20260506154401 | 58 | 29 | 1.7 | 2.6 | 0.00 | 0.00 | 0.02 | 80 | 927.1 |
| 20260506154301 | 58 | 5 | 1.7 | 2.6 | 0.00 | 0.00 | 0.02 | 80 | 927.4 |
| 20260506154201 | 58 | 47 | 1.7 | 2.6 | 0.00 | 0.00 | 0.02 | 80 | 927.5 |
| 20260506154101 | 58 | 31 | 1.7 | 2.6 | 0.00 | 0.00 | 0.02 | 79 | 927.4 |
| 20260506154001 | 58 | 38 | 1.7 | 2.6 | 0.00 | 0.00 | 0.02 | 80 | 927.4 |
| 20260506153902 | 58 | 14 | 1.7 | 2.6 | 0.00 | 0.00 | 0.02 | 79 | 927.3 |
| 20260506153801 | 58 | 21 | 2.6 | 2.6 | 0.00 | 0.00 | 0.02 | 79 | 927.4 |
| 20260506153701 | 58 | 33 | 1.7 | 2.6 | 0.00 | 0.00 | 0.02 | 79 | 927.6 |
| 20260506153601 | 58 | 62 | 1.7 | 1.7 | 0.00 | 0.00 | 0.02 | 79 | 927.7 |
| 20260506153501 | 58 | 28 | 0.9 | 2.6 | 0.00 | 0.00 | 0.02 | 79 | 927.5 |
| 20260506153400 | 58 | 30 | 1.7 | 2.6 | 0.00 | 0.00 | 0.02 | 78 | 927.5 |
| 20260506153301 | 58 | 3 | 1.7 | 1.7 | 0.00 | 0.00 | 0.02 | 80 | 927.4 |
| 20260506153201 | 58 | 19 | 0.9 | 1.7 | 0.00 | 0.00 | 0.02 | 80 | 927.7 |
| 20260506153101 | 58 | 349 | 1.7 | 1.7 | 0.00 | 0.00 | 0.02 | 77 | 927.6 |
| 20260506153001 | 58 | 21 | 1.7 | 1.7 | 0.00 | 0.00 | 0.02 | 81 | 927.8 |
| 20260506152901 | 58 | 359 | 1.7 | 1.7 | 0.00 | 0.00 | 0.02 | 78 | 927.6 |
| 20260506152801 | 58 | 353 | 0.9 | 0.9 | 0.00 | 0.00 | 0.02 | 77 | 927.8 |
| 20260506152701 | 58 | 354 | 0.9 | 0.9 | 0.00 | 0.00 | 0.02 | 77 | 927.6 |
| 20260506152602 | 57 | 350 | 0.9 | 0.9 | 0.00 | 0.00 | 0.02 | 78 | 927.6 |
| 20260506152501 | 57 | 334 | 0.9 | 0.9 | 0.00 | 0.00 | 0.02 | 78 | 927.8 |
| 20260506152401 | 57 | 328 | 0.9 | 0.9 | 0.00 | 0.00 | 0.02 | 77 | 927.9 |
| 20260506152305 | 57 | 325 | 0.9 | 0.9 | 0.00 | 0.00 | 0.02 | 78 | 928.0 |
| 20260506152201 | 57 | 336 | 0.9 | 0.9 | 0.00 | 0.00 | 0.02 | 80 | 927.9 |
| 20260506152101 | 58 | 354 | 0.9 | 0.9 | 0.00 | 0.00 | 0.02 | 80 | 927.9 |
| 20260506152002 | 58 | 10 | 0.9 | 1.7 | 0.00 | 0.00 | 0.02 | 78 | 927.7 |
| 20260506151901 | 57 | 357 | 0.9 | 1.7 | 0.00 | 0.00 | 0.02 | 77 | 927.8 |
| 20260506151801 | 57 | 342 | 0.9 | 1.7 | 0.00 | 0.00 | 0.02 | 76 | 927.7 |
| 20260506151700 | 57 | 338 | 0.9 | 1.7 | 0.00 | 0.00 | 0.02 | 76 | 927.6 |
| 20260506151601 | 57 | 332 | 0.9 | 1.7 | 0.00 | 0.00 | 0.02 | 77 | 927.6 |
| 20260506151502 | 57 | 342 | 0.9 | 1.7 | 0.00 | 0.00 | 0.02 | 77 | 927.8 |
| 20260506151401 | 58 | 331 | 1.7 | 2.6 | 0.00 | 0.00 | 0.02 | 77 | 927.5 |
| 20260506151301 | 58 | 329 | 1.7 | 2.6 | 0.00 | 0.00 | 0.02 | 76 | 927.6 |
| 20260506151201 | 58 | 339 | 1.7 | 2.6 | 0.00 | 0.00 | 0.02 | 75 | 927.7 |
| 20260506151105 | 58 | 331 | 1.7 | 2.6 | 0.00 | 0.00 | 0.02 | 75 | 927.9 |
| 20260506151001 | 58 | 330 | 1.7 | 2.6 | 0.00 | 0.00 | 0.02 | 75 | 927.8 |
| 20260506150901 | 58 | 347 | 2.6 | 2.6 | 0.00 | 0.00 | 0.02 | 73 | 927.7 |
| 20260506150801 | 59 | 343 | 1.7 | 2.6 | 0.00 | 0.00 | 0.02 | 74 | 927.7 |
| 20260506150701 | 59 | 343 | 1.7 | 1.7 | 0.00 | 0.00 | 0.02 | 76 | 927.8 |
| 20260506150601 | 58 | 47 | 1.7 | 1.7 | 0.00 | 0.00 | 0.02 | 73 | 927.7 |
| 20260506150501 | 58 | 41 | 0.9 | 1.7 | 0.00 | 0.00 | 0.02 | 72 | 927.8 |
| 20260506150401 | 58 | 23 | 0.0 | 2.6 | 0.00 | 0.00 | 0.02 | 72 | 927.7 |
| 20260506150304 | 58 | 330 | 1.7 | 2.6 | 0.00 | 0.00 | 0.02 | 72 | 927.8 |
| 20260506150201 | 58 | 338 | 2.6 | 2.6 | 0.00 | 0.00 | 0.02 | 76 | 927.7 |
| 20260506150101 | 57 | 13 | 2.6 | 2.6 | 0.00 | 0.00 | 0.02 | 77 | 927.7 |
| 20260506150002 | 57 | 350 | 2.6 | 2.6 | 0.00 | 0.00 | 0.02 | 78 | 927.8 |
| 20260506145901 | 58 | 342 | 2.6 | 3.5 | 0.00 | 0.00 | 0.01 | 78 | 927.8 |
| 20260506145801 | 58 | 347 | 1.7 | 2.6 | 0.00 | 0.00 | 0.01 | 79 | 928.0 |
| 20260506145701 | 58 | 326 | 1.7 | 2.6 | 0.00 | 0.00 | 0.01 | 78 | 927.9 |
| 20260506145602 | 58 | 311 | 1.7 | 2.6 | 0.00 | 0.00 | 0.01 | 78 | 927.9 |
| 20260506145500 | 58 | 322 | 2.6 | 2.6 | 0.00 | 0.00 | 0.01 | 76 | 927.9 |
| 20260506145401 | 58 | 322 | 2.6 | 2.6 | 0.00 | 0.00 | 0.01 | 76 | 927.9 |
| 20260506145305 | 59 | 307 | 1.7 | 2.6 | 0.00 | 0.00 | 0.01 | 75 | 927.9 |
| 20260506145201 | 59 | 313 | 1.7 | 2.6 | 0.00 | 0.00 | 0.01 | 75 | 928.1 |
| 20260506145101 | 60 | 327 | 1.7 | 1.7 | 0.00 | 0.00 | 0.01 | 74 | 928.0 |
| 20260506145001 | 60 | 303 | 0.9 | 0.9 | 0.00 | 0.00 | 0.01 | 71 | 928.3 |
| 20260506144901 | 61 | 305 | 0.9 | 0.9 | 0.00 | 0.00 | 0.01 | 70 | 928.1 |
| 20260506144800 | 62 | 303 | 0.9 | 1.7 | 0.00 | 0.00 | 0.01 | 68 | 928.2 |
| 20260506144702 | 62 | 300 | 1.7 | 1.7 | 0.00 | 0.00 | 0.01 | 66 | 928.2 |
| 20260506144602 | 63 | 305 | 0.9 | 0.9 | 0.00 | 0.00 | 0.01 | 65 | 928.1 |
| 20260506144501 | 63 | 316 | 0.9 | 0.9 | 0.00 | 0.00 | 0.01 | 62 | 928.4 |
| 20260506144400 | 63 | 284 | 0.9 | 0.9 | 0.00 | 0.00 | 0.01 | 61 | 927.9 |
| 20260506144301 | 63 | 131 | 0.0 | 0.0 | 0.00 | 0.00 | 0.01 | 60 | 928.2 |
| 20260506144201 | 64 | 130 | 0.0 | 0.0 | 0.00 | 0.00 | 0.01 | 61 | 928.1 |
| 20260506144101 | 64 | 130 | 0.0 | 0.0 | 0.00 | 0.00 | 0.01 | 59 | 928.2 |
| 20260506144001 | 64 | 130 | 0.0 | 0.0 | 0.00 | 0.00 | 0.01 | 59 | 928.1 |
| 20260506143901 | 64 | 130 | 0.0 | 0.0 | 0.00 | 0.00 | 0.01 | 60 | 928.3 |
| 20260506143801 | 64 | 130 | 0.0 | 0.0 | 0.00 | 0.00 | 0.01 | 60 | 928.0 |
| 20260506143702 | 64 | 130 | 0.0 | 0.0 | 0.00 | 0.00 | 0.01 | 60 | 928.1 |
| 20260506143601 | 64 | 130 | 0.0 | 0.0 | 0.00 | 0.00 | 0.01 | 60 | 927.9 |
| 20260506143501 | 64 | 130 | 0.0 | 0.0 | 0.00 | 0.00 | 0.01 | 61 | 928.0 |
| 20260506143401 | 64 | 130 | 0.0 | 0.0 | 0.00 | 0.00 | 0.01 | 61 | 928.2 |
| 20260506143303 | 64 | 130 | 0.0 | 0.0 | 0.00 | 0.00 | 0.01 | 59 | 927.8 |
| 20260506143201 | 64 | 130 | 0.0 | 0.0 | 0.00 | 0.00 | 0.01 | 58 | 928.1 |
| 20260506143101 | 64 | 130 | 0.0 | 0.0 | 0.00 | 0.00 | 0.01 | 59 | 927.9 |
| 20260506143001 | 64 | 130 | 0.0 | 0.0 | 0.00 | 0.00 | 0.01 | 57 | 928.0 |
| 20260506142901 | 64 | 130 | 0.0 | 0.9 | 0.00 | 0.00 | 0.01 | 57 | 927.9 |
| 20260506142801 | 64 | 130 | 0.9 | 0.9 | 0.00 | 0.00 | 0.01 | 54 | 928.1 |
| 20260506142701 | 64 | 130 | 0.0 | 0.0 | 0.00 | 0.00 | 0.01 | 55 | 928.1 |
| 20260506142601 | 64 | 137 | 0.0 | 0.0 | 0.00 | 0.00 | 0.01 | 56 | 928.1 |
| 20260506142502 | 64 | 137 | 0.0 | 0.0 | 0.00 | 0.00 | 0.01 | 58 | 928.3 |
| 20260506142401 | 64 | 137 | 0.0 | 0.0 | 0.00 | 0.00 | 0.01 | 59 | 928.2 |
| 20260506142302 | 64 | 137 | 0.0 | 0.0 | 0.00 | 0.00 | 0.01 | 58 | 928.1 |
| 20260506142201 | 64 | 137 | 0.0 | 0.0 | 0.00 | 0.00 | 0.01 | 56 | 928.1 |
| 20260506142101 | 64 | 137 | 0.0 | 0.9 | 0.00 | 0.00 | 0.01 | 57 | 927.9 |
| 20260506142001 | 64 | 137 | 0.0 | 0.9 | 0.00 | 0.00 | 0.01 | 56 | 928.1 |
| 20260506141901 | 64 | 170 | 0.0 | 0.0 | 0.00 | 0.00 | 0.01 | 56 | 928.1 |
| 20260506141802 | 64 | 171 | 0.0 | 0.0 | 0.00 | 0.00 | 0.01 | 56 | 928.2 |
| 20260506141701 | 64 | 171 | 0.0 | 0.9 | 0.00 | 0.00 | 0.01 | 54 | 928.0 |
| 20260506141601 | 64 | 171 | 0.0 | 0.9 | 0.00 | 0.00 | 0.01 | 55 | 928.2 |
| 20260506141501 | 64 | 171 | 0.0 | 0.9 | 0.00 | 0.00 | 0.01 | 56 | 928.2 |
| 20260506141401 | 64 | 171 | 0.0 | 0.9 | 0.00 | 0.00 | 0.01 | 54 | 928.3 |
| 20260506141300 | 64 | 172 | 0.9 | 0.9 | 0.00 | 0.00 | 0.01 | 54 | 928.2 |
| 20260506141201 | 64 | 156 | 0.9 | 0.9 | 0.00 | 0.00 | 0.01 | 54 | 928.2 |
| 20260506141101 | 64 | 130 | 0.9 | 0.9 | 0.00 | 0.00 | 0.01 | 54 | 928.4 |
| 20260506141001 | 64 | 163 | 0.0 | 0.9 | 0.00 | 0.00 | 0.01 | 56 | 928.0 |
| 20260506140901 | 65 | 162 | 0.0 | 0.9 | 0.00 | 0.00 | 0.01 | 55 | 928.2 |
| 20260506140804 | 65 | 171 | 0.9 | 1.7 | 0.00 | 0.00 | 0.01 | 53 | 928.2 |
| 20260506140700 | 65 | 184 | 0.9 | 0.9 | 0.00 | 0.00 | 0.01 | 55 | 928.6 |
| 20260506140601 | 65 | 209 | 0.9 | 0.9 | 0.00 | 0.00 | 0.01 | 53 | 928.3 |
| 20260506140500 | 65 | 169 | 0.9 | 1.7 | 0.00 | 0.00 | 0.01 | 53 | 928.3 |
| 20260506140401 | 65 | 151 | 0.9 | 1.7 | 0.00 | 0.00 | 0.01 | 52 | 928.3 |
| 20260506140301 | 65 | 159 | 0.9 | 1.7 | 0.00 | 0.00 | 0.01 | 53 | 928.3 |
| 20260506140201 | 65 | 141 | 0.9 | 0.9 | 0.00 | 0.00 | 0.01 | 55 | 928.3 |
| 20260506140100 | 65 | 136 | 0.9 | 0.9 | 0.00 | 0.00 | 0.01 | 55 | 928.4 |
| 20260506140001 | 65 | 190 | 0.9 | 1.7 | 0.00 | 0.00 | 0.01 | 54 | 928.5 |
| 20260506135902 | 65 | 172 | 0.9 | 1.7 | 0.00 | 0.00 | 0.01 | 53 | 928.4 |
| 20260506135801 | 65 | 166 | 0.9 | 0.9 | 0.00 | 0.00 | 0.01 | 55 | 928.3 |
| 20260506135702 | 65 | 142 | 0.9 | 1.7 | 0.00 | 0.00 | 0.01 | 56 | 928.3 |
| 20260506135600 | 65 | 134 | 0.9 | 1.7 | 0.00 | 0.00 | 0.01 | 55 | 928.4 |
| 20260506135501 | 65 | 153 | 0.9 | 0.9 | 0.00 | 0.00 | 0.01 | 55 | 928.4 |
| 20260506135401 | 65 | 155 | 0.9 | 1.7 | 0.00 | 0.00 | 0.01 | 56 | 928.4 |
| 20260506135300 | 65 | 155 | 0.9 | 1.7 | 0.00 | 0.00 | 0.01 | 56 | 928.4 |
| 20260506135201 | 64 | 170 | 1.7 | 2.6 | 0.00 | 0.00 | 0.01 | 53 | 928.6 |
| 20260506135101 | 64 | 178 | 1.7 | 2.6 | 0.00 | 0.00 | 0.01 | 53 | 928.5 |
| 20260506135001 | 65 | 173 | 1.7 | 2.6 | 0.00 | 0.00 | 0.01 | 53 | 928.4 |
| 20260506134901 | 65 | 186 | 1.7 | 2.6 | 0.00 | 0.00 | 0.01 | 53 | 928.4 |
| 20260506134801 | 65 | 166 | 0.9 | 1.7 | 0.00 | 0.00 | 0.01 | 53 | 928.5 |
| 20260506134701 | 65 | 193 | 1.7 | 2.6 | 0.00 | 0.00 | 0.01 | 54 | 928.4 |
| 20260506134601 | 65 | 179 | 1.7 | 2.6 | 0.00 | 0.00 | 0.01 | 53 | 928.5 |
| 20260506134501 | 65 | 166 | 0.9 | 2.6 | 0.00 | 0.00 | 0.01 | 53 | 928.6 |
| 20260506134402 | 65 | 145 | 1.7 | 2.6 | 0.00 | 0.00 | 0.01 | 53 | 928.4 |
| 20260506134300 | 65 | 151 | 2.6 | 2.6 | 0.00 | 0.00 | 0.01 | 53 | 928.4 |
| 20260506134200 | 65 | 192 | 1.7 | 2.6 | 0.00 | 0.00 | 0.01 | 52 | 928.5 |
| 20260506134101 | 65 | 146 | 1.7 | 3.5 | 0.00 | 0.00 | 0.01 | 53 | 928.6 |
| 20260506134002 | 65 | 141 | 1.7 | 2.6 | 0.00 | 0.00 | 0.01 | 52 | 928.6 |
| 20260506133901 | 65 | 145 | 1.7 | 1.7 | 0.00 | 0.00 | 0.01 | 53 | 928.6 |
| 20260506133802 | 65 | 167 | 1.7 | 2.6 | 0.00 | 0.00 | 0.01 | 53 | 928.5 |
| 20260506133700 | 65 | 156 | 1.7 | 2.6 | 0.00 | 0.00 | 0.01 | 53 | 928.4 |
| 20260506133602 | 65 | 144 | 1.7 | 3.5 | 0.00 | 0.00 | 0.01 | 53 | 928.4 |
| 20260506133502 | 65 | 151 | 3.5 | 3.5 | 0.00 | 0.00 | 0.01 | 52 | 928.6 |
| 20260506133401 | 65 | 174 | 2.6 | 3.5 | 0.00 | 0.00 | 0.01 | 51 | 928.5 |
| 20260506133302 | 65 | 182 | 2.6 | 3.5 | 0.00 | 0.00 | 0.01 | 52 | 928.5 |
| 20260506133201 | 65 | 173 | 2.6 | 3.5 | 0.00 | 0.00 | 0.01 | 52 | 928.5 |
| 20260506133101 | 65 | 174 | 0.9 | 2.6 | 0.00 | 0.00 | 0.01 | 52 | 928.6 |
| 20260506133001 | 65 | 162 | 1.7 | 2.6 | 0.00 | 0.00 | 0.01 | 52 | 928.7 |
| 20260506132901 | 65 | 187 | 1.7 | 2.6 | 0.00 | 0.00 | 0.01 | 52 | 928.5 |
| 20260506132800 | 65 | 205 | 2.6 | 3.5 | 0.00 | 0.00 | 0.01 | 51 | 928.7 |
| 20260506132701 | 65 | 145 | 2.6 | 3.5 | 0.00 | 0.00 | 0.01 | 51 | 928.5 |
| 20260506132601 | 65 | 167 | 1.7 | 3.5 | 0.00 | 0.00 | 0.01 | 53 | 928.9 |
| 20260506132501 | 66 | 160 | 1.7 | 3.5 | 0.00 | 0.00 | 0.01 | 51 | 928.6 |
| 20260506132401 | 66 | 169 | 1.7 | 2.6 | 0.00 | 0.00 | 0.01 | 51 | 928.7 |
| 20260506132302 | 66 | 154 | 1.7 | 2.6 | 0.00 | 0.00 | 0.01 | 50 | 928.8 |
| 20260506132201 | 66 | 168 | 2.6 | 2.6 | 0.00 | 0.00 | 0.01 | 51 | 928.7 |
| 20260506132101 | 66 | 148 | 1.7 | 2.6 | 0.00 | 0.00 | 0.01 | 50 | 928.8 |
| 20260506132001 | 66 | 180 | 2.6 | 2.6 | 0.00 | 0.00 | 0.01 | 51 | 928.6 |
| 20260506131901 | 66 | 207 | 1.7 | 2.6 | 0.00 | 0.00 | 0.01 | 50 | 928.8 |
| 20260506131801 | 66 | 165 | 1.7 | 2.6 | 0.00 | 0.00 | 0.01 | 50 | 928.8 |
| 20260506131701 | 67 | 180 | 1.7 | 2.6 | 0.00 | 0.00 | 0.01 | 50 | 928.9 |
| 20260506131602 | 67 | 171 | 1.7 | 2.6 | 0.00 | 0.00 | 0.01 | 51 | 928.7 |
| 20260506131502 | 67 | 191 | 1.7 | 3.5 | 0.00 | 0.00 | 0.01 | 49 | 928.6 |
| 20260506131401 | 67 | 168 | 2.6 | 3.5 | 0.00 | 0.00 | 0.01 | 50 | 928.7 |
| 20260506131303 | 67 | 166 | 0.9 | 2.6 | 0.00 | 0.00 | 0.01 | 51 | 928.8 |
| 20260506131201 | 67 | 182 | 1.7 | 2.6 | 0.00 | 0.00 | 0.01 | 50 | 928.7 |
| 20260506131101 | 67 | 168 | 1.7 | 2.6 | 0.00 | 0.00 | 0.01 | 51 | 928.8 |
| 20260506131001 | 67 | 147 | 2.6 | 2.6 | 0.00 | 0.00 | 0.01 | 49 | 928.8 |
| 20260506130902 | 67 | 175 | 1.7 | 2.6 | 0.00 | 0.00 | 0.01 | 49 | 929.0 |
| 20260506130801 | 67 | 161 | 1.7 | 2.6 | 0.00 | 0.00 | 0.01 | 51 | 928.8 |
| 20260506130701 | 67 | 191 | 1.7 | 2.6 | 0.00 | 0.00 | 0.01 | 49 | 928.8 |
| 20260506130601 | 68 | 198 | 1.7 | 2.6 | 0.00 | 0.00 | 0.01 | 49 | 928.8 |
| 20260506130501 | 68 | 195 | 1.7 | 2.6 | 0.00 | 0.00 | 0.01 | 47 | 928.9 |
| 20260506130401 | 68 | 204 | 2.6 | 2.6 | 0.00 | 0.00 | 0.01 | 47 | 928.8 |
| 20260506130301 | 68 | 189 | 1.7 | 2.6 | 0.00 | 0.00 | 0.01 | 48 | 928.9 |
| 20260506130201 | 68 | 162 | 1.7 | 2.6 | 0.00 | 0.00 | 0.01 | 49 | 928.8 |
| 20260506130002 | 68 | 198 | 1.7 | 4.3 | 0.00 | 0.00 | 0.01 | 48 | 928.8 |
| 20260506125901 | 68 | 181 | 3.5 | 4.3 | 0.00 | 0.00 | 0.01 | 47 | 928.8 |
| 20260506125800 | 68 | 172 | 1.7 | 3.5 | 0.00 | 0.00 | 0.01 | 48 | 929.0 |
| 20260506125700 | 68 | 168 | 1.7 | 3.5 | 0.00 | 0.00 | 0.01 | 48 | 928.7 |
| 20260506125601 | 68 | 200 | 3.5 | 3.5 | 0.00 | 0.00 | 0.01 | 47 | 928.9 |
| 20260506125501 | 68 | 181 | 1.7 | 2.6 | 0.00 | 0.00 | 0.01 | 48 | 928.9 |
| 20260506125400 | 68 | 170 | 1.7 | 2.6 | 0.00 | 0.00 | 0.01 | 47 | 928.9 |
| 20260506125301 | 68 | 170 | 1.7 | 2.6 | 0.00 | 0.00 | 0.01 | 47 | 928.9 |
| 20260506125201 | 68 | 187 | 1.7 | 2.6 | 0.00 | 0.00 | 0.01 | 46 | 929.1 |
| 20260506125101 | 68 | 164 | 2.6 | 2.6 | 0.00 | 0.00 | 0.01 | 48 | 929.0 |
| 20260506125001 | 68 | 195 | 2.6 | 3.5 | 0.00 | 0.00 | 0.01 | 47 | 928.9 |
| 20260506124901 | 68 | 122 | 2.6 | 3.5 | 0.00 | 0.00 | 0.01 | 46 | 929.1 |
| 20260506124801 | 68 | 151 | 3.5 | 6.1 | 0.00 | 0.00 | 0.01 | 50 | 929.0 |
| 20260506124700 | 68 | 150 | 2.6 | 6.1 | 0.00 | 0.00 | 0.01 | 49 | 929.0 |
| 20260506124601 | 68 | 156 | 1.7 | 2.6 | 0.00 | 0.00 | 0.01 | 49 | 929.0 |
| 20260506124501 | 67 | 177 | 1.7 | 2.6 | 0.00 | 0.00 | 0.01 | 51 | 929.1 |
| 20260506124401 | 67 | 201 | 2.6 | 2.6 | 0.00 | 0.00 | 0.01 | 52 | 928.8 |
| 20260506124301 | 66 | 158 | 1.7 | 2.6 | 0.00 | 0.00 | 0.01 | 52 | 928.9 |
| 20260506124202 | 66 | 195 | 1.7 | 2.6 | 0.00 | 0.00 | 0.01 | 51 | 929.0 |
| 20260506124102 | 66 | 154 | 0.9 | 2.6 | 0.00 | 0.00 | 0.01 | 51 | 929.1 |
| 20260506124001 | 66 | 176 | 0.9 | 2.6 | 0.00 | 0.00 | 0.01 | 54 | 929.2 |
| 20260506123901 | 65 | 192 | 0.9 | 1.7 | 0.00 | 0.00 | 0.01 | 53 | 928.9 |
| 20260506123801 | 65 | 181 | 0.9 | 1.7 | 0.00 | 0.00 | 0.01 | 52 | 929.1 |
| 20260506123701 | 65 | 196 | 0.9 | 0.9 | 0.00 | 0.00 | 0.01 | 53 | 929.1 |
| 20260506123601 | 65 | 183 | 0.9 | 0.9 | 0.00 | 0.00 | 0.01 | 51 | 929.2 |
| 20260506123501 | 65 | 212 | 0.9 | 0.9 | 0.00 | 0.00 | 0.01 | 52 | 929.1 |
| 20260506123401 | 65 | 173 | 0.9 | 0.9 | 0.00 | 0.00 | 0.01 | 55 | 929.1 |
| 20260506123301 | 65 | 147 | 0.9 | 0.9 | 0.00 | 0.00 | 0.01 | 55 | 929.2 |
| 20260506123201 | 65 | 168 | 0.9 | 0.9 | 0.00 | 0.00 | 0.01 | 54 | 929.1 |
| 20260506123102 | 65 | 193 | 0.9 | 0.9 | 0.00 | 0.00 | 0.01 | 54 | 929.4 |
| 20260506123001 | 65 | 173 | 0.9 | 0.9 | 0.00 | 0.00 | 0.01 | 53 | 929.2 |
| 20260506122901 | 65 | 218 | 0.9 | 1.7 | 0.00 | 0.00 | 0.01 | 54 | 929.2 |
| 20260506122800 | 65 | 219 | 0.9 | 1.7 | 0.00 | 0.00 | 0.01 | 53 | 928.9 |
| 20260506122706 | 65 | 203 | 0.9 | 1.7 | 0.00 | 0.00 | 0.01 | 52 | 929.3 |
| 20260506122601 | 65 | 218 | 0.0 | 0.9 | 0.00 | 0.00 | 0.01 | 52 | 929.3 |
| 20260506122500 | 65 | 218 | 0.0 | 0.9 | 0.00 | 0.00 | 0.01 | 53 | 929.1 |
| 20260506122401 | 65 | 216 | 0.9 | 0.9 | 0.00 | 0.00 | 0.01 | 54 | 929.2 |
| 20260506122301 | 65 | 182 | 0.9 | 0.9 | 0.00 | 0.00 | 0.01 | 53 | 929.3 |
| 20260506122201 | 65 | 203 | 0.9 | 0.9 | 0.00 | 0.00 | 0.01 | 52 | 929.3 |
| 20260506122100 | 65 | 209 | 0.9 | 0.9 | 0.00 | 0.00 | 0.01 | 52 | 929.3 |
| 20260506122006 | 65 | 210 | 0.0 | 0.9 | 0.00 | 0.00 | 0.01 | 53 | 929.3 |
| 20260506121901 | 65 | 224 | 0.0 | 0.9 | 0.00 | 0.00 | 0.01 | 52 | 929.2 |
| 20260506121801 | 65 | 224 | 0.9 | 0.9 | 0.00 | 0.00 | 0.01 | 53 | 929.4 |
| 20260506121701 | 65 | 197 | 0.9 | 0.9 | 0.00 | 0.00 | 0.01 | 54 | 929.3 |
| 20260506121601 | 65 | 216 | 0.9 | 1.7 | 0.00 | 0.00 | 0.01 | 52 | 929.4 |
| 20260506121501 | 65 | 222 | 0.9 | 1.7 | 0.00 | 0.00 | 0.01 | 52 | 929.3 |
| 20260506121401 | 66 | 208 | 1.7 | 1.7 | 0.00 | 0.00 | 0.01 | 54 | 929.4 |
| 20260506121301 | 66 | 158 | 0.9 | 1.7 | 0.00 | 0.00 | 0.01 | 52 | 929.4 |
| 20260506121200 | 66 | 203 | 0.9 | 1.7 | 0.00 | 0.00 | 0.01 | 53 | 929.3 |
| 20260506121100 | 66 | 152 | 0.9 | 1.7 | 0.00 | 0.00 | 0.01 | 52 | 929.3 |
| 20260506121002 | 66 | 230 | 0.0 | 0.0 | 0.00 | 0.00 | 0.01 | 50 | 929.3 |
| 20260506120900 | 67 | 194 | 0.0 | 1.7 | 0.00 | 0.00 | 0.01 | 52 | 929.4 |
| 20260506120802 | 67 | 102 | 0.9 | 2.6 | 0.00 | 0.00 | 0.01 | 49 | 929.3 |
| 20260506120702 | 68 | 186 | 1.7 | 2.6 | 0.00 | 0.00 | 0.01 | 53 | 929.5 |
| 20260506120600 | 68 | 177 | 0.9 | 1.7 | 0.00 | 0.00 | 0.01 | 52 | 929.2 |
| 20260506120501 | 68 | 136 | 0.9 | 1.7 | 0.00 | 0.00 | 0.01 | 54 | 929.2 |
| 20260506120401 | 67 | 146 | 0.9 | 0.9 | 0.00 | 0.00 | 0.01 | 51 | 929.2 |
| 20260506120301 | 67 | 142 | 0.0 | 0.9 | 0.00 | 0.00 | 0.01 | 52 | 929.4 |
| 20260506120201 | 67 | 141 | 0.0 | 1.7 | 0.00 | 0.00 | 0.01 | 52 | 929.4 |
| 20260506120101 | 67 | 173 | 0.9 | 1.7 | 0.00 | 0.00 | 0.01 | 54 | 929.4 |
| 20260506120001 | 67 | 178 | 0.9 | 0.9 | 0.00 | 0.00 | 0.01 | 50 | 929.3 |
| 20260506115901 | 66 | 199 | 0.9 | 1.7 | 0.00 | 0.00 | 0.01 | 52 | 929.6 |
| 20260506115801 | 65 | 198 | 0.9 | 1.7 | 0.00 | 0.00 | 0.01 | 55 | 929.5 |
| 20260506115701 | 65 | 202 | 0.9 | 0.9 | 0.00 | 0.00 | 0.01 | 57 | 929.6 |
| 20260506115601 | 65 | 180 | 0.9 | 0.9 | 0.00 | 0.00 | 0.01 | 55 | 929.5 |
| 20260506115501 | 65 | 196 | 0.9 | 1.7 | 0.00 | 0.00 | 0.01 | 54 | 929.5 |
| 20260506115402 | 65 | 161 | 0.9 | 1.7 | 0.00 | 0.00 | 0.01 | 53 | 929.5 |
| 20260506115305 | 65 | 193 | 1.7 | 2.6 | 0.00 | 0.00 | 0.01 | 53 | 929.4 |
| 20260506115201 | 65 | 193 | 1.7 | 2.6 | 0.00 | 0.00 | 0.01 | 53 | 929.4 |
| 20260506115101 | 65 | 162 | 1.7 | 2.6 | 0.00 | 0.00 | 0.01 | 54 | 929.5 |
| 20260506115001 | 65 | 210 | 0.9 | 0.9 | 0.00 | 0.00 | 0.01 | 55 | 929.3 |
| 20260506114902 | 65 | 182 | 0.9 | 1.7 | 0.00 | 0.00 | 0.01 | 54 | 929.4 |
| 20260506114801 | 65 | 186 | 0.9 | 1.7 | 0.00 | 0.00 | 0.01 | 52 | 929.4 |
| 20260506114701 | 65 | 196 | 1.7 | 1.7 | 0.00 | 0.00 | 0.01 | 53 | 929.4 |
| 20260506114601 | 66 | 203 | 0.9 | 1.7 | 0.00 | 0.00 | 0.01 | 54 | 929.4 |
| 20260506114500 | 66 | 196 | 1.7 | 2.6 | 0.00 | 0.00 | 0.01 | 50 | 929.5 |
| 20260506114401 | 67 | 163 | 1.7 | 2.6 | 0.00 | 0.00 | 0.01 | 52 | 929.4 |
| 20260506114300 | 67 | 194 | 1.7 | 2.6 | 0.00 | 0.00 | 0.01 | 51 | 929.5 |
| 20260506114201 | 66 | 187 | 1.7 | 2.6 | 0.00 | 0.00 | 0.01 | 54 | 929.4 |
| 20260506114102 | 66 | 187 | 1.7 | 2.6 | 0.00 | 0.00 | 0.01 | 52 | 929.5 |
| 20260506114000 | 66 | 181 | 2.6 | 2.6 | 0.00 | 0.00 | 0.01 | 52 | 929.4 |
| 20260506113901 | 66 | 171 | 2.6 | 3.5 | 0.00 | 0.00 | 0.01 | 50 | 929.7 |
| 20260506113802 | 66 | 183 | 2.6 | 3.5 | 0.00 | 0.00 | 0.01 | 51 | 929.4 |
| 20260506113700 | 66 | 222 | 1.7 | 2.6 | 0.00 | 0.00 | 0.01 | 51 | 929.2 |
| 20260506113601 | 66 | 177 | 1.7 | 1.7 | 0.00 | 0.00 | 0.01 | 52 | 929.5 |
| 20260506113502 | 66 | 162 | 0.9 | 1.7 | 0.00 | 0.00 | 0.01 | 55 | 929.7 |
| 20260506113401 | 66 | 136 | 0.9 | 1.7 | 0.00 | 0.00 | 0.01 | 53 | 929.5 |
| 20260506113301 | 66 | 193 | 1.7 | 1.7 | 0.00 | 0.00 | 0.01 | 52 | 929.6 |
| 20260506113200 | 66 | 139 | 0.9 | 1.7 | 0.00 | 0.00 | 0.01 | 54 | 929.5 |
| 20260506113101 | 66 | 208 | 0.9 | 2.6 | 0.00 | 0.00 | 0.01 | 52 | 929.6 |
| 20260506113002 | 66 | 221 | 1.7 | 2.6 | 0.00 | 0.00 | 0.01 | 55 | 929.7 |
| 20260506112901 | 66 | 229 | 0.0 | 2.6 | 0.00 | 0.00 | 0.01 | 52 | 929.4 |
| 20260506112801 | 66 | 218 | 0.9 | 2.6 | 0.00 | 0.00 | 0.01 | 51 | 929.7 |
| 20260506112700 | 66 | 228 | 1.7 | 2.6 | 0.00 | 0.00 | 0.01 | 54 | 929.5 |
| 20260506112600 | 66 | 227 | 1.7 | 2.6 | 0.00 | 0.00 | 0.01 | 52 | 929.4 |
| 20260506112501 | 66 | 226 | 2.6 | 2.6 | 0.00 | 0.00 | 0.01 | 53 | 929.7 |
| 20260506112401 | 66 | 209 | 2.6 | 2.6 | 0.00 | 0.00 | 0.01 | 52 | 929.4 |
| 20260506112301 | 67 | 217 | 2.6 | 2.6 | 0.00 | 0.00 | 0.01 | 52 | 929.7 |
| 20260506112201 | 67 | 198 | 1.7 | 2.6 | 0.00 | 0.00 | 0.01 | 51 | 929.6 |
| 20260506112101 | 67 | 216 | 1.7 | 3.5 | 0.00 | 0.00 | 0.01 | 51 | 929.7 |
| 20260506112001 | 67 | 201 | 3.5 | 3.5 | 0.00 | 0.00 | 0.01 | 50 | 929.6 |
| 20260506111901 | 66 | 186 | 1.7 | 3.5 | 0.00 | 0.00 | 0.01 | 54 | 929.6 |
| 20260506111801 | 66 | 129 | 1.7 | 2.6 | 0.00 | 0.00 | 0.01 | 54 | 929.6 |
| 20260506111701 | 65 | 156 | 0.9 | 1.7 | 0.00 | 0.00 | 0.01 | 55 | 929.7 |
| 20260506111601 | 65 | 210 | 0.9 | 0.9 | 0.00 | 0.00 | 0.01 | 57 | 929.8 |
| 20260506111501 | 65 | 285 | 0.0 | 0.9 | 0.00 | 0.00 | 0.01 | 58 | 929.6 |
| 20260506111401 | 65 | 27 | 0.9 | 0.9 | 0.00 | 0.00 | 0.01 | 54 | 929.6 |
| 20260506111301 | 65 | 331 | 0.0 | 0.9 | 0.00 | 0.00 | 0.01 | 57 | 929.6 |
| 20260506111201 | 65 | 331 | 0.9 | 1.7 | 0.00 | 0.00 | 0.01 | 56 | 929.7 |
| 20260506111101 | 65 | 328 | 0.9 | 1.7 | 0.00 | 0.00 | 0.01 | 55 | 929.5 |
| 20260506111002 | 65 | 329 | 0.9 | 1.7 | 0.00 | 0.00 | 0.01 | 55 | 929.5 |
| 20260506110901 | 64 | 275 | 0.0 | 0.0 | 0.00 | 0.00 | 0.01 | 56 | 929.7 |
| 20260506110801 | 64 | 267 | 0.0 | 0.9 | 0.00 | 0.00 | 0.01 | 57 | 929.6 |
| 20260506110700 | 64 | 267 | 0.0 | 0.9 | 0.00 | 0.00 | 0.01 | 59 | 929.8 |
| 20260506110602 | 64 | 286 | 0.0 | 0.9 | 0.00 | 0.00 | 0.01 | 58 | 929.6 |
| 20260506110501 | 64 | 280 | 0.0 | 0.9 | 0.00 | 0.00 | 0.01 | 56 | 929.6 |
| 20260506110402 | 64 | 282 | 0.9 | 0.9 | 0.00 | 0.00 | 0.01 | 58 | 929.7 |
| 20260506110301 | 64 | 277 | 0.9 | 0.9 | 0.00 | 0.00 | 0.01 | 58 | 929.8 |
| 20260506110202 | 64 | 222 | 0.0 | 0.9 | 0.00 | 0.00 | 0.01 | 56 | 929.8 |
| 20260506110000 | 64 | 226 | 0.9 | 1.7 | 0.00 | 0.00 | 0.01 | 59 | 929.8 |
| 20260506105902 | 64 | 211 | 0.9 | 1.7 | 0.00 | 0.00 | 0.01 | 58 | 929.9 |
| 20260506105801 | 64 | 202 | 0.9 | 2.6 | 0.00 | 0.00 | 0.01 | 56 | 930.1 |
| 20260506105701 | 64 | 203 | 1.7 | 2.6 | 0.00 | 0.00 | 0.01 | 55 | 930.0 |
| 20260506105600 | 64 | 195 | 1.7 | 2.6 | 0.00 | 0.00 | 0.01 | 55 | 929.8 |
| 20260506105502 | 64 | 163 | 0.9 | 1.7 | 0.00 | 0.00 | 0.01 | 56 | 930.0 |
| 20260506105400 | 64 | 193 | 0.9 | 1.7 | 0.00 | 0.00 | 0.01 | 56 | 929.8 |
| 20260506105304 | 64 | 198 | 1.7 | 1.7 | 0.00 | 0.00 | 0.01 | 56 | 929.9 |
| 20260506105201 | 64 | 183 | 1.7 | 1.7 | 0.00 | 0.00 | 0.01 | 57 | 929.8 |
| 20260506105101 | 64 | 183 | 1.7 | 1.7 | 0.00 | 0.00 | 0.01 | 57 | 929.8 |
| 20260506105001 | 64 | 170 | 0.9 | 1.7 | 0.00 | 0.00 | 0.01 | 57 | 929.8 |
| 20260506104900 | 64 | 187 | 1.7 | 1.7 | 0.00 | 0.00 | 0.01 | 57 | 929.8 |
| 20260506104801 | 64 | 204 | 0.9 | 1.7 | 0.00 | 0.00 | 0.01 | 60 | 930.0 |
| 20260506104701 | 64 | 222 | 0.9 | 1.7 | 0.00 | 0.00 | 0.01 | 58 | 929.7 |
| 20260506104601 | 64 | 228 | 0.9 | 1.7 | 0.00 | 0.00 | 0.01 | 59 | 929.9 |
| 20260506104501 | 64 | 287 | 0.0 | 0.9 | 0.00 | 0.00 | 0.01 | 57 | 929.8 |
| 20260506104402 | 64 | 261 | 0.9 | 2.6 | 0.00 | 0.00 | 0.01 | 58 | 929.9 |
| 20260506104302 | 64 | 187 | 1.7 | 2.6 | 0.00 | 0.00 | 0.01 | 57 | 929.8 |
| 20260506104201 | 65 | 221 | 0.9 | 0.9 | 0.00 | 0.00 | 0.01 | 62 | 929.9 |
| 20260506104101 | 65 | 215 | 0.9 | 1.7 | 0.00 | 0.00 | 0.01 | 59 | 929.8 |
| 20260506104002 | 65 | 200 | 0.9 | 1.7 | 0.00 | 0.00 | 0.01 | 57 | 930.0 |
| 20260506103901 | 65 | 202 | 0.9 | 1.7 | 0.00 | 0.00 | 0.01 | 58 | 929.7 |
| 20260506103801 | 65 | 168 | 0.0 | 0.9 | 0.00 | 0.00 | 0.01 | 55 | 930.0 |
| 20260506103702 | 65 | 164 | 0.9 | 0.9 | 0.00 | 0.00 | 0.01 | 56 | 929.9 |
| 20260506103601 | 65 | 81 | 0.0 | 0.0 | 0.00 | 0.00 | 0.01 | 56 | 930.1 |
| 20260506103501 | 65 | 242 | 0.0 | 0.0 | 0.00 | 0.00 | 0.01 | 57 | 929.7 |
| 20260506103401 | 65 | 295 | 0.0 | 0.0 | 0.00 | 0.00 | 0.01 | 56 | 930.0 |
| 20260506103301 | 65 | 283 | 0.0 | 0.9 | 0.00 | 0.00 | 0.01 | 56 | 929.9 |
| 20260506103201 | 64 | 192 | 0.9 | 0.9 | 0.00 | 0.00 | 0.01 | 56 | 929.8 |
| 20260506103101 | 64 | 189 | 0.0 | 0.9 | 0.00 | 0.00 | 0.01 | 59 | 930.1 |
| 20260506103001 | 64 | 298 | 0.0 | 0.9 | 0.00 | 0.00 | 0.01 | 59 | 929.8 |
| 20260506102900 | 64 | 281 | 0.0 | 0.9 | 0.00 | 0.00 | 0.01 | 58 | 929.9 |
| 20260506102801 | 64 | 243 | 0.0 | 0.9 | 0.00 | 0.00 | 0.01 | 60 | 929.9 |
| 20260506102701 | 64 | 326 | 0.0 | 0.9 | 0.00 | 0.00 | 0.01 | 59 | 930.1 |
| 20260506102601 | 63 | 298 | 0.0 | 0.9 | 0.00 | 0.00 | 0.01 | 58 | 930.2 |
| 20260506102501 | 63 | 317 | 0.9 | 0.9 | 0.00 | 0.00 | 0.01 | 59 | 930.0 |
| 20260506102401 | 63 | 263 | 0.0 | 0.9 | 0.00 | 0.00 | 0.01 | 61 | 929.9 |
| 20260506102305 | 63 | 146 | 0.0 | 0.9 | 0.00 | 0.00 | 0.01 | 59 | 929.9 |
| 20260506102201 | 63 | 124 | 0.9 | 0.9 | 0.00 | 0.00 | 0.01 | 60 | 930.0 |
| 20260506102101 | 63 | 208 | 0.0 | 0.9 | 0.00 | 0.00 | 0.01 | 59 | 929.8 |
| 20260506102001 | 63 | 310 | 0.0 | 0.9 | 0.00 | 0.00 | 0.01 | 60 | 930.0 |
| 20260506101901 | 63 | 296 | 0.0 | 0.9 | 0.00 | 0.00 | 0.01 | 59 | 930.0 |
| 20260506101801 | 63 | 228 | 0.0 | 0.0 | 0.00 | 0.00 | 0.01 | 61 | 929.9 |
| 20260506101700 | 63 | 226 | 0.0 | 0.9 | 0.00 | 0.00 | 0.01 | 60 | 930.0 |
| 20260506101600 | 63 | 226 | 0.0 | 0.9 | 0.00 | 0.00 | 0.01 | 59 | 930.2 |
| 20260506101501 | 64 | 250 | 0.9 | 0.9 | 0.00 | 0.00 | 0.01 | 59 | 930.0 |
| 20260506101401 | 64 | 261 | 0.9 | 0.9 | 0.00 | 0.00 | 0.01 | 60 | 930.2 |
| 20260506101301 | 64 | 254 | 0.0 | 0.9 | 0.00 | 0.00 | 0.01 | 59 | 930.2 |
| 20260506101201 | 64 | 254 | 0.0 | 0.9 | 0.00 | 0.00 | 0.01 | 58 | 930.3 |
| 20260506101101 | 64 | 231 | 0.9 | 1.7 | 0.00 | 0.00 | 0.01 | 58 | 930.2 |
| 20260506101001 | 64 | 230 | 0.9 | 2.6 | 0.00 | 0.00 | 0.01 | 60 | 930.4 |
| 20260506100901 | 64 | 199 | 1.7 | 1.7 | 0.00 | 0.00 | 0.01 | 62 | 930.2 |
| 20260506100801 | 63 | 200 | 1.7 | 2.6 | 0.00 | 0.00 | 0.01 | 61 | 930.2 |
| 20260506100701 | 63 | 157 | 0.9 | 1.7 | 0.00 | 0.00 | 0.01 | 60 | 930.2 |
| 20260506100601 | 63 | 159 | 0.9 | 1.7 | 0.00 | 0.00 | 0.01 | 62 | 930.1 |
| 20260506100501 | 63 | 202 | 1.7 | 1.7 | 0.00 | 0.00 | 0.01 | 61 | 930.2 |
| 20260506100400 | 64 | 189 | 1.7 | 1.7 | 0.00 | 0.00 | 0.01 | 61 | 930.1 |
| 20260506100301 | 64 | 181 | 1.7 | 1.7 | 0.00 | 0.00 | 0.01 | 62 | 930.0 |
| 20260506100201 | 64 | 198 | 1.7 | 1.7 | 0.00 | 0.00 | 0.01 | 62 | 930.0 |
| 20260506100101 | 64 | 205 | 0.9 | 1.7 | 0.00 | 0.00 | 0.01 | 63 | 930.3 |
| 20260506100001 | 64 | 213 | 0.9 | 1.7 | 0.00 | 0.00 | 0.01 | 59 | 930.1 |
| 20260506095901 | 63 | 230 | 0.0 | 0.9 | 0.00 | 0.00 | 0.01 | 61 | 930.1 |
| 20260506095802 | 63 | 279 | 0.0 | 0.9 | 0.00 | 0.00 | 0.01 | 59 | 930.1 |
| 20260506095702 | 63 | 267 | 0.9 | 1.7 | 0.00 | 0.00 | 0.01 | 62 | 930.1 |
| 20260506095601 | 63 | 220 | 0.9 | 1.7 | 0.00 | 0.00 | 0.01 | 60 | 929.9 |
| 20260506095502 | 63 | 221 | 0.9 | 1.7 | 0.00 | 0.00 | 0.01 | 61 | 930.2 |
| 20260506095401 | 62 | 226 | 0.9 | 1.7 | 0.00 | 0.00 | 0.01 | 62 | 930.1 |
| 20260506095300 | 62 | 234 | 0.9 | 1.7 | 0.00 | 0.00 | 0.01 | 62 | 930.1 |
| 20260506095200 | 62 | 201 | 0.9 | 2.6 | 0.00 | 0.00 | 0.01 | 64 | 930.3 |
| 20260506095100 | 62 | 210 | 1.7 | 2.6 | 0.00 | 0.00 | 0.01 | 63 | 930.2 |
| 20260506095002 | 62 | 210 | 1.7 | 2.6 | 0.00 | 0.00 | 0.01 | 63 | 930.2 |
| 20260506094900 | 62 | 286 | 0.9 | 1.7 | 0.00 | 0.00 | 0.01 | 62 | 930.1 |
| 20260506094801 | 62 | 196 | 0.9 | 1.7 | 0.00 | 0.00 | 0.01 | 64 | 930.2 |
| 20260506094701 | 63 | 187 | 0.9 | 2.6 | 0.00 | 0.00 | 0.01 | 63 | 930.1 |
| 20260506094601 | 63 | 197 | 1.7 | 2.6 | 0.00 | 0.00 | 0.01 | 60 | 930.4 |
| 20260506094501 | 63 | 208 | 2.6 | 2.6 | 0.00 | 0.00 | 0.01 | 61 | 930.3 |
| 20260506094400 | 63 | 247 | 0.9 | 1.7 | 0.00 | 0.00 | 0.01 | 65 | 930.2 |
| 20260506094302 | 63 | 221 | 1.7 | 1.7 | 0.00 | 0.00 | 0.01 | 61 | 930.4 |
| 20260506094201 | 63 | 242 | 0.9 | 2.6 | 0.00 | 0.00 | 0.01 | 64 | 930.2 |
| 20260506094101 | 63 | 227 | 0.9 | 2.6 | 0.00 | 0.00 | 0.01 | 62 | 930.2 |
| 20260506094001 | 63 | 206 | 0.9 | 0.9 | 0.00 | 0.00 | 0.01 | 62 | 930.2 |
| 20260506093901 | 63 | 234 | 0.0 | 0.9 | 0.00 | 0.00 | 0.01 | 61 | 930.0 |
| 20260506093801 | 63 | 234 | 0.9 | 2.6 | 0.00 | 0.00 | 0.01 | 61 | 930.2 |
| 20260506093701 | 64 | 194 | 1.7 | 2.6 | 0.00 | 0.00 | 0.01 | 62 | 930.3 |
| 20260506093601 | 64 | 201 | 0.9 | 2.6 | 0.00 | 0.00 | 0.01 | 61 | 930.2 |
| 20260506093501 | 63 | 208 | 1.7 | 2.6 | 0.00 | 0.00 | 0.01 | 65 | 930.2 |
| 20260506093400 | 62 | 225 | 0.9 | 1.7 | 0.00 | 0.00 | 0.01 | 65 | 930.3 |
| 20260506093300 | 62 | 219 | 0.9 | 1.7 | 0.00 | 0.00 | 0.01 | 66 | 930.3 |
| 20260506093200 | 62 | 285 | 0.9 | 0.9 | 0.00 | 0.00 | 0.01 | 63 | 930.2 |
| 20260506093101 | 63 | 257 | 0.9 | 0.9 | 0.00 | 0.00 | 0.01 | 64 | 930.3 |
| 20260506093001 | 63 | 293 | 0.9 | 0.9 | 0.00 | 0.00 | 0.01 | 62 | 930.1 |
| 20260506092901 | 63 | 283 | 0.0 | 0.9 | 0.00 | 0.00 | 0.01 | 63 | 930.1 |
| 20260506092802 | 63 | 281 | 0.9 | 0.9 | 0.00 | 0.00 | 0.01 | 64 | 930.0 |
| 20260506092701 | 63 | 262 | 0.0 | 1.7 | 0.00 | 0.00 | 0.01 | 64 | 930.2 |
| 20260506092600 | 62 | 235 | 0.9 | 1.7 | 0.00 | 0.00 | 0.01 | 64 | 930.1 |
| 20260506092502 | 62 | 209 | 1.7 | 1.7 | 0.00 | 0.00 | 0.01 | 66 | 930.1 |
| 20260506092401 | 62 | 187 | 1.7 | 1.7 | 0.00 | 0.00 | 0.01 | 65 | 930.1 |
| 20260506092300 | 62 | 226 | 0.0 | 0.9 | 0.00 | 0.00 | 0.01 | 66 | 930.1 |
| 20260506092201 | 61 | 221 | 0.9 | 0.9 | 0.00 | 0.00 | 0.01 | 66 | 930.0 |
| 20260506092101 | 61 | 229 | 0.9 | 1.7 | 0.00 | 0.00 | 0.01 | 66 | 930.0 |
| 20260506092001 | 60 | 281 | 0.0 | 2.6 | 0.00 | 0.00 | 0.01 | 66 | 930.0 |
| 20260506091901 | 60 | 188 | 1.7 | 2.6 | 0.00 | 0.00 | 0.01 | 69 | 929.9 |
| 20260506091801 | 60 | 145 | 0.0 | 0.9 | 0.00 | 0.00 | 0.01 | 67 | 930.2 |
| 20260506091701 | 60 | 197 | 0.9 | 1.7 | 0.00 | 0.00 | 0.01 | 66 | 930.3 |
| 20260506091601 | 61 | 190 | 0.9 | 2.6 | 0.00 | 0.00 | 0.01 | 65 | 930.3 |
| 20260506091501 | 61 | 194 | 1.7 | 3.5 | 0.00 | 0.00 | 0.01 | 63 | 930.0 |
| 20260506091401 | 62 | 220 | 0.9 | 2.6 | 0.00 | 0.00 | 0.01 | 64 | 930.1 |
| 20260506091302 | 62 | 191 | 1.7 | 2.6 | 0.00 | 0.00 | 0.01 | 65 | 929.9 |
| 20260506091201 | 62 | 180 | 1.7 | 2.6 | 0.00 | 0.00 | 0.01 | 65 | 930.1 |
| 20260506091101 | 62 | 205 | 1.7 | 2.6 | 0.00 | 0.00 | 0.01 | 62 | 930.1 |
| 20260506091001 | 62 | 274 | 0.0 | 1.7 | 0.00 | 0.00 | 0.01 | 63 | 930.1 |
| 20260506090901 | 62 | 198 | 0.9 | 1.7 | 0.00 | 0.00 | 0.01 | 67 | 930.2 |
| 20260506090800 | 62 | 192 | 0.9 | 1.7 | 0.00 | 0.00 | 0.01 | 64 | 930.3 |
| 20260506090701 | 62 | 262 | 0.0 | 0.9 | 0.00 | 0.00 | 0.01 | 65 | 930.2 |
| 20260506090601 | 62 | 271 | 0.0 | 0.9 | 0.00 | 0.00 | 0.01 | 65 | 930.2 |
| 20260506090501 | 62 | 268 | 0.9 | 0.9 | 0.00 | 0.00 | 0.01 | 65 | 930.2 |
| 20260506090401 | 62 | 276 | 0.9 | 1.7 | 0.00 | 0.00 | 0.01 | 64 | 930.2 |
| 20260506090301 | 62 | 284 | 0.9 | 1.7 | 0.00 | 0.00 | 0.01 | 63 | 930.1 |
| 20260506090201 | 62 | 216 | 0.9 | 1.7 | 0.00 | 0.00 | 0.01 | 62 | 930.0 |
| 20260506090000 | 61 | 259 | 0.0 | 0.9 | 0.00 | 0.00 | 0.01 | 65 | 930.1 |
| 20260506085901 | 61 | 259 | 0.0 | 1.7 | 0.00 | 0.00 | 0.01 | 68 | 930.2 |
| 20260506085801 | 61 | 240 | 0.9 | 1.7 | 0.00 | 0.00 | 0.01 | 67 | 930.1 |
| 20260506085701 | 60 | 226 | 0.9 | 1.7 | 0.00 | 0.00 | 0.01 | 67 | 930.2 |
| 20260506085600 | 60 | 230 | 0.9 | 1.7 | 0.00 | 0.00 | 0.01 | 71 | 930.1 |
| 20260506085501 | 60 | 222 | 1.7 | 1.7 | 0.00 | 0.00 | 0.01 | 69 | 930.4 |
| 20260506085402 | 60 | 214 | 0.9 | 2.6 | 0.00 | 0.00 | 0.01 | 68 | 930.2 |
| 20260506085301 | 60 | 189 | 1.7 | 2.6 | 0.00 | 0.00 | 0.01 | 69 | 930.2 |
| 20260506085201 | 60 | 179 | 1.7 | 1.7 | 0.00 | 0.00 | 0.01 | 70 | 930.0 |
| 20260506085100 | 60 | 208 | 1.7 | 2.6 | 0.00 | 0.00 | 0.01 | 68 | 930.0 |
| 20260506085001 | 60 | 194 | 2.6 | 2.6 | 0.00 | 0.00 | 0.01 | 68 | 930.1 |
| 20260506084901 | 60 | 194 | 2.6 | 2.6 | 0.00 | 0.00 | 0.01 | 68 | 930.1 |
| 20260506084801 | 60 | 207 | 1.7 | 1.7 | 0.00 | 0.00 | 0.01 | 68 | 930.3 |
| 20260506084700 | 59 | 196 | 0.9 | 1.7 | 0.00 | 0.00 | 0.01 | 70 | 930.2 |
| 20260506084600 | 59 | 230 | 0.9 | 1.7 | 0.00 | 0.00 | 0.01 | 72 | 930.3 |
| 20260506084501 | 59 | 219 | 1.7 | 1.7 | 0.00 | 0.00 | 0.01 | 70 | 930.1 |
| 20260506084402 | 59 | 226 | 0.9 | 1.7 | 0.00 | 0.00 | 0.01 | 72 | 930.1 |
| 20260506084300 | 59 | 198 | 1.7 | 2.6 | 0.00 | 0.00 | 0.01 | 69 | 930.2 |
| 20260506084201 | 59 | 195 | 1.7 | 2.6 | 0.00 | 0.00 | 0.01 | 68 | 930.1 |
| 20260506084101 | 59 | 222 | 0.9 | 1.7 | 0.00 | 0.00 | 0.01 | 70 | 930.0 |
| 20260506084001 | 59 | 225 | 0.9 | 2.6 | 0.00 | 0.00 | 0.01 | 70 | 930.1 |
| 20260506083901 | 60 | 192 | 1.7 | 2.6 | 0.00 | 0.00 | 0.01 | 72 | 930.2 |
| 20260506083801 | 60 | 166 | 0.9 | 1.7 | 0.00 | 0.00 | 0.01 | 70 | 930.2 |
| 20260506083701 | 60 | 194 | 1.7 | 2.6 | 0.00 | 0.00 | 0.01 | 70 | 930.0 |
| 20260506083601 | 60 | 187 | 0.9 | 2.6 | 0.00 | 0.00 | 0.01 | 69 | 930.1 |
| 20260506083501 | 61 | 186 | 1.7 | 2.6 | 0.00 | 0.00 | 0.01 | 67 | 930.0 |
| 20260506083400 | 61 | 200 | 1.7 | 2.6 | 0.00 | 0.00 | 0.01 | 68 | 930.1 |
| 20260506083301 | 61 | 192 | 1.7 | 1.7 | 0.00 | 0.00 | 0.01 | 69 | 930.2 |
| 20260506083201 | 60 | 220 | 0.9 | 0.9 | 0.00 | 0.00 | 0.01 | 68 | 930.2 |
| 20260506083101 | 60 | 240 | 0.0 | 1.7 | 0.00 | 0.00 | 0.01 | 71 | 930.1 |
| 20260506083001 | 60 | 180 | 1.7 | 2.6 | 0.00 | 0.00 | 0.01 | 72 | 929.9 |
| 20260506082901 | 60 | 226 | 1.7 | 1.7 | 0.00 | 0.00 | 0.01 | 72 | 930.0 |
| 20260506082801 | 60 | 228 | 0.9 | 1.7 | 0.00 | 0.00 | 0.01 | 73 | 930.0 |
| 20260506082701 | 60 | 205 | 1.7 | 1.7 | 0.00 | 0.00 | 0.01 | 71 | 930.2 |
| 20260506082600 | 60 | 196 | 0.9 | 2.6 | 0.00 | 0.00 | 0.01 | 69 | 930.1 |
| 20260506082501 | 60 | 211 | 1.7 | 2.6 | 0.00 | 0.00 | 0.01 | 68 | 930.0 |
| 20260506082400 | 59 | 228 | 1.7 | 1.7 | 0.00 | 0.00 | 0.01 | 74 | 930.2 |
| 20260506082105 | 59 | 288 | 0.0 | 0.9 | 0.00 | 0.00 | 0.01 | 72 | 930.0 |
| 20260506082001 | 59 | 288 | 0.0 | 1.7 | 0.00 | 0.00 | 0.01 | 72 | 930.1 |
| 20260506081800 | 59 | 232 | 0.9 | 1.7 | 0.00 | 0.00 | 0.01 | 73 | 930.0 |
| 20260506081701 | 59 | 187 | 0.9 | 1.7 | 0.00 | 0.00 | 0.01 | 71 | 929.9 |
| 20260506081601 | 59 | 227 | 0.9 | 0.9 | 0.00 | 0.00 | 0.01 | 71 | 930.0 |
| 20260506081501 | 59 | 201 | 0.0 | 0.9 | 0.00 | 0.00 | 0.01 | 73 | 930.0 |
| 20260506081402 | 59 | 188 | 0.9 | 0.9 | 0.00 | 0.00 | 0.01 | 72 | 930.2 |
| 20260506081301 | 59 | 224 | 0.0 | 0.9 | 0.00 | 0.00 | 0.01 | 70 | 930.1 |
| 20260506081201 | 59 | 227 | 0.0 | 1.7 | 0.00 | 0.00 | 0.01 | 70 | 930.2 |
| 20260506081101 | 59 | 258 | 0.0 | 1.7 | 0.00 | 0.00 | 0.01 | 71 | 930.1 |
| 20260506081001 | 59 | 220 | 0.9 | 1.7 | 0.00 | 0.00 | 0.01 | 71 | 929.9 |
| 20260506080901 | 58 | 231 | 0.0 | 0.9 | 0.00 | 0.00 | 0.01 | 70 | 930.1 |
| 20260506080801 | 58 | 230 | 0.9 | 1.7 | 0.00 | 0.00 | 0.01 | 72 | 930.0 |
| 20260506080701 | 58 | 241 | 0.9 | 1.7 | 0.00 | 0.00 | 0.01 | 73 | 930.2 |
| 20260506080601 | 58 | 218 | 0.9 | 1.7 | 0.00 | 0.00 | 0.01 | 73 | 930.0 |
| 20260506080500 | 58 | 223 | 0.9 | 2.6 | 0.00 | 0.00 | 0.01 | 73 | 930.1 |
| 20260506080402 | 58 | 219 | 1.7 | 2.6 | 0.00 | 0.00 | 0.01 | 73 | 929.9 |
| 20260506080302 | 58 | 235 | 0.9 | 1.7 | 0.00 | 0.00 | 0.01 | 73 | 930.2 |
| 20260506080202 | 58 | 219 | 1.7 | 1.7 | 0.00 | 0.00 | 0.01 | 74 | 930.2 |
| 20260506073501 | 56 | 289 | 0.9 | 0.9 | 0.00 | 0.00 | 0.01 | 76 | 930.2 |
| 20260506073401 | 56 | 282 | 0.9 | 0.9 | 0.00 | 0.00 | 0.01 | 77 | 930.3 |
| 20260506073301 | 56 | 286 | 0.9 | 0.9 | 0.00 | 0.00 | 0.01 | 76 | 929.9 |
| 20260506073201 | 56 | 283 | 0.9 | 0.9 | 0.00 | 0.00 | 0.01 | 77 | 930.1 |
| 20260506073101 | 56 | 281 | 0.9 | 0.9 | 0.00 | 0.00 | 0.01 | 76 | 930.1 |
| 20260506073001 | 56 | 283 | 0.9 | 0.9 | 0.00 | 0.00 | 0.01 | 76 | 930.2 |
| 20260506072901 | 56 | 291 | 0.9 | 0.9 | 0.00 | 0.00 | 0.01 | 76 | 930.1 |
| 20260506072806 | 56 | 271 | 0.0 | 1.7 | 0.00 | 0.00 | 0.01 | 77 | 930.3 |
| 20260506072702 | 56 | 233 | 0.9 | 1.7 | 0.00 | 0.00 | 0.01 | 75 | 930.3 |
| 20260506072601 | 56 | 232 | 0.9 | 0.9 | 0.00 | 0.00 | 0.01 | 76 | 930.1 |
| 20260506072501 | 56 | 236 | 0.9 | 0.9 | 0.00 | 0.00 | 0.01 | 76 | 930.0 |
| 20260506072401 | 56 | 268 | 0.9 | 1.7 | 0.00 | 0.00 | 0.01 | 75 | 930.2 |
| 20260506072305 | 57 | 262 | 0.9 | 1.7 | 0.00 | 0.00 | 0.01 | 75 | 930.2 |
| 20260506072201 | 57 | 285 | 0.9 | 1.7 | 0.00 | 0.00 | 0.01 | 75 | 930.1 |
| 20260506072101 | 57 | 250 | 0.9 | 1.7 | 0.00 | 0.00 | 0.01 | 75 | 930.2 |
| 20260506072001 | 57 | 245 | 0.9 | 1.7 | 0.00 | 0.00 | 0.01 | 75 | 930.2 |
| 20260506071901 | 57 | 274 | 0.9 | 0.9 | 0.00 | 0.00 | 0.01 | 75 | 930.3 |
| 20260506071800 | 57 | 267 | 0.9 | 1.7 | 0.00 | 0.00 | 0.01 | 74 | 930.2 |
| 20260506071701 | 57 | 274 | 0.9 | 1.7 | 0.00 | 0.00 | 0.01 | 74 | 930.1 |
| 20260506071601 | 57 | 282 | 0.9 | 0.9 | 0.00 | 0.00 | 0.01 | 76 | 930.1 |
| 20260506071500 | 57 | 300 | 0.9 | 1.7 | 0.00 | 0.00 | 0.01 | 75 | 930.1 |
| 20260506071401 | 57 | 280 | 0.9 | 1.7 | 0.00 | 0.00 | 0.01 | 74 | 930.2 |
| 20260506071302 | 57 | 291 | 0.9 | 1.7 | 0.00 | 0.00 | 0.01 | 74 | 930.1 |
| 20260506071201 | 57 | 284 | 1.7 | 1.7 | 0.00 | 0.00 | 0.01 | 74 | 930.2 |
| 20260506070902 | 57 | 220 | 0.9 | 2.6 | 0.00 | 0.00 | 0.01 | 74 | 930.2 |
| 20260506070802 | 58 | 292 | 0.9 | 2.6 | 0.00 | 0.00 | 0.01 | 74 | 930.1 |
| 20260506070701 | 58 | 281 | 0.9 | 2.6 | 0.00 | 0.00 | 0.01 | 73 | 930.4 |
| 20260506070601 | 58 | 223 | 0.9 | 0.9 | 0.00 | 0.00 | 0.01 | 74 | 930.1 |
| 20260506070501 | 58 | 254 | 0.0 | 0.9 | 0.00 | 0.00 | 0.01 | 74 | 930.3 |
| 20260506070401 | 58 | 263 | 0.9 | 1.7 | 0.00 | 0.00 | 0.01 | 75 | 930.1 |
| 20260506070301 | 58 | 283 | 0.9 | 1.7 | 0.00 | 0.00 | 0.01 | 74 | 930.0 |
| 20260506070200 | 57 | 240 | 0.9 | 1.7 | 0.00 | 0.00 | 0.01 | 74 | 930.2 |
| 20260506062501 | 56 | 222 | 0.9 | 1.7 | 0.00 | 0.00 | 0.01 | 78 | 929.7 |
| 20260506062402 | 56 | 233 | 0.9 | 1.7 | 0.00 | 0.00 | 0.01 | 78 | 929.7 |
| 20260506062301 | 56 | 241 | 0.9 | 1.7 | 0.00 | 0.00 | 0.01 | 78 | 929.8 |
| 20260506062201 | 56 | 278 | 0.9 | 2.6 | 0.00 | 0.00 | 0.01 | 78 | 929.7 |
| 20260506062101 | 56 | 243 | 0.9 | 2.6 | 0.00 | 0.00 | 0.01 | 78 | 929.8 |
| 20260506062000 | 56 | 231 | 0.9 | 2.6 | 0.00 | 0.00 | 0.01 | 77 | 929.7 |
| 20260506061902 | 56 | 226 | 1.7 | 2.6 | 0.00 | 0.00 | 0.01 | 77 | 929.8 |
| 20260506061800 | 56 | 218 | 0.9 | 2.6 | 0.00 | 0.00 | 0.01 | 78 | 929.8 |
| 20260506061702 | 56 | 231 | 0.9 | 1.7 | 0.00 | 0.00 | 0.01 | 76 | 929.7 |
| 20260506061601 | 56 | 252 | 0.9 | 0.9 | 0.00 | 0.00 | 0.01 | 77 | 929.9 |
| 20260506061501 | 56 | 234 | 0.9 | 1.7 | 0.00 | 0.00 | 0.01 | 78 | 929.6 |
| 20260506061401 | 56 | 237 | 0.9 | 2.6 | 0.00 | 0.00 | 0.01 | 78 | 929.7 |
| 20260506061301 | 56 | 227 | 0.9 | 2.6 | 0.00 | 0.00 | 0.01 | 77 | 929.8 |
| 20260506061201 | 56 | 228 | 1.7 | 1.7 | 0.00 | 0.00 | 0.01 | 76 | 929.7 |
| 20260506061100 | 56 | 228 | 0.9 | 1.7 | 0.00 | 0.00 | 0.01 | 76 | 930.0 |
| 20260506061001 | 56 | 224 | 0.9 | 1.7 | 0.00 | 0.00 | 0.01 | 77 | 929.8 |
| 20260506060901 | 56 | 221 | 0.9 | 1.7 | 0.00 | 0.00 | 0.01 | 80 | 929.9 |
| 20260506060801 | 56 | 210 | 0.9 | 1.7 | 0.00 | 0.00 | 0.01 | 80 | 929.9 |
| 20260506060703 | 56 | 243 | 0.9 | 1.7 | 0.00 | 0.00 | 0.01 | 78 | 929.8 |
| 20260506060602 | 56 | 278 | 0.9 | 1.7 | 0.00 | 0.00 | 0.01 | 77 | 929.6 |
| 20260506060502 | 55 | 234 | 0.9 | 1.7 | 0.00 | 0.00 | 0.01 | 80 | 929.8 |
| 20260506060401 | 55 | 230 | 0.0 | 1.7 | 0.00 | 0.00 | 0.01 | 81 | 929.6 |
| 20260506060300 | 55 | 225 | 0.9 | 1.7 | 0.00 | 0.00 | 0.01 | 81 | 929.8 |
| 20260506060201 | 55 | 221 | 0.9 | 1.7 | 0.00 | 0.00 | 0.01 | 82 | 929.9 |
| 20260506051401 | 54 | 218 | 0.9 | 1.7 | 0.00 | 0.00 | 0.01 | 85 | 929.3 |
| 20260506051301 | 54 | 265 | 0.9 | 0.9 | 0.00 | 0.00 | 0.01 | 86 | 929.6 |
| 20260506051201 | 54 | 250 | 0.9 | 0.9 | 0.00 | 0.00 | 0.01 | 86 | 929.6 |
| 20260506051102 | 54 | 261 | 0.0 | 0.9 | 0.00 | 0.00 | 0.01 | 86 | 929.5 |
| 20260506051000 | 54 | 275 | 0.0 | 0.9 | 0.00 | 0.00 | 0.01 | 86 | 929.6 |
| 20260506050901 | 54 | 235 | 0.9 | 0.9 | 0.00 | 0.00 | 0.01 | 86 | 929.5 |
| 20260506050800 | 54 | 274 | 0.9 | 0.9 | 0.00 | 0.00 | 0.01 | 86 | 929.5 |
| 20260506050701 | 54 | 279 | 0.9 | 1.7 | 0.00 | 0.00 | 0.01 | 86 | 929.4 |
| 20260506050601 | 54 | 268 | 0.9 | 1.7 | 0.00 | 0.00 | 0.01 | 86 | 929.7 |
| 20260506050501 | 54 | 264 | 0.0 | 0.9 | 0.00 | 0.00 | 0.01 | 86 | 929.5 |
| 20260506050402 | 54 | 224 | 0.9 | 0.9 | 0.00 | 0.00 | 0.01 | 86 | 929.5 |
| 20260506050300 | 54 | 274 | 0.9 | 0.9 | 0.00 | 0.00 | 0.01 | 87 | 929.3 |
| 20260506050201 | 53 | 270 | 0.9 | 0.9 | 0.00 | 0.00 | 0.01 | 87 | 929.4 |
| 20260506045101 | 53 | 267 | 0.9 | 1.7 | 0.00 | 0.00 | 0.01 | 89 | 929.4 |
| 20260506045002 | 53 | 225 | 0.9 | 2.6 | 0.00 | 0.00 | 0.01 | 89 | 929.3 |
| 20260506044902 | 53 | 221 | 1.7 | 2.6 | 0.00 | 0.00 | 0.01 | 89 | 929.3 |
| 20260506044801 | 53 | 221 | 0.9 | 2.6 | 0.00 | 0.00 | 0.01 | 89 | 929.2 |
| 20260506044700 | 53 | 232 | 0.9 | 2.6 | 0.00 | 0.00 | 0.01 | 89 | 929.2 |
| 20260506044601 | 53 | 220 | 1.7 | 1.7 | 0.00 | 0.00 | 0.01 | 89 | 929.6 |
| 20260506044501 | 53 | 220 | 1.7 | 1.7 | 0.00 | 0.00 | 0.01 | 89 | 929.6 |
| 20260506044401 | 53 | 221 | 1.7 | 1.7 | 0.00 | 0.00 | 0.01 | 90 | 929.3 |
| 20260506044302 | 53 | 220 | 0.0 | 0.9 | 0.00 | 0.00 | 0.01 | 90 | 929.3 |
| 20260506044205 | 53 | 233 | 0.0 | 0.9 | 0.00 | 0.00 | 0.01 | 91 | 929.3 |
| 20260506044105 | 53 | 232 | 0.0 | 0.9 | 0.00 | 0.00 | 0.01 | 91 | 929.3 |
| 20260506044002 | 53 | 234 | 0.0 | 1.7 | 0.00 | 0.00 | 0.01 | 91 | 929.2 |
| 20260506043801 | 53 | 253 | 0.0 | 1.7 | 0.00 | 0.00 | 0.01 | 91 | 929.3 |
| 20260506043701 | 53 | 198 | 1.7 | 1.7 | 0.00 | 0.00 | 0.01 | 92 | 929.3 |
| 20260506043601 | 53 | 224 | 0.9 | 1.7 | 0.00 | 0.00 | 0.01 | 92 | 929.3 |
| 20260506043501 | 53 | 215 | 0.9 | 1.7 | 0.00 | 0.00 | 0.01 | 92 | 929.4 |
| 20260506043400 | 53 | 197 | 0.9 | 1.7 | 0.00 | 0.00 | 0.01 | 92 | 929.6 |
| 20260506043300 | 52 | 224 | 0.9 | 1.7 | 0.00 | 0.00 | 0.01 | 92 | 929.3 |
| 20260506043200 | 52 | 217 | 1.7 | 1.7 | 0.00 | 0.00 | 0.01 | 92 | 929.5 |
| 20260506043101 | 52 | 233 | 0.9 | 2.6 | 0.00 | 0.00 | 0.01 | 92 | 929.4 |
| 20260506043000 | 52 | 188 | 1.7 | 2.6 | 0.00 | 0.00 | 0.01 | 93 | 929.1 |
| 20260506042901 | 52 | 226 | 0.9 | 1.7 | 0.00 | 0.00 | 0.01 | 93 | 929.3 |
| 20260506042802 | 52 | 239 | 0.9 | 1.7 | 0.00 | 0.00 | 0.01 | 93 | 929.4 |
| 20260506042701 | 52 | 228 | 0.9 | 0.9 | 0.00 | 0.00 | 0.01 | 94 | 929.3 |
| 20260506042600 | 52 | 236 | 0.9 | 1.7 | 0.00 | 0.00 | 0.01 | 95 | 929.2 |
| 20260506042501 | 52 | 213 | 0.9 | 2.6 | 0.00 | 0.00 | 0.01 | 95 | 929.3 |
| 20260506042401 | 52 | 217 | 1.7 | 2.6 | 0.00 | 0.00 | 0.01 | 96 | 929.4 |
| 20260506042304 | 52 | 210 | 1.7 | 1.7 | 0.00 | 0.00 | 0.01 | 96 | 929.2 |
| 20260506042201 | 52 | 235 | 0.9 | 1.7 | 0.00 | 0.00 | 0.01 | 96 | 929.2 |
| 20260506042101 | 52 | 220 | 0.9 | 1.7 | 0.00 | 0.00 | 0.01 | 97 | 929.2 |
| 20260506042001 | 52 | 218 | 0.9 | 1.7 | 0.00 | 0.00 | 0.01 | 97 | 929.2 |
| 20260506041901 | 52 | 215 | 0.9 | 2.6 | 0.00 | 0.00 | 0.01 | 97 | 929.2 |
| 20260506041800 | 52 | 211 | 1.7 | 2.6 | 0.00 | 0.00 | 0.01 | 97 | 929.0 |
| 20260506041701 | 52 | 219 | 1.7 | 2.6 | 0.00 | 0.00 | 0.01 | 97 | 929.1 |
| 20260506041601 | 52 | 275 | 0.9 | 2.6 | 0.00 | 0.00 | 0.01 | 98 | 929.1 |
| 20260506041502 | 52 | 224 | 1.7 | 2.6 | 0.00 | 0.00 | 0.01 | 98 | 929.0 |
| 20260506041401 | 52 | 211 | 2.6 | 2.6 | 0.00 | 0.00 | 0.01 | 98 | 929.1 |
| 20260506041301 | 52 | 209 | 1.7 | 2.6 | 0.00 | 0.00 | 0.01 | 98 | 929.1 |
| 20260506041201 | 52 | 263 | 0.9 | 2.6 | 0.00 | 0.00 | 0.01 | 98 | 929.0 |
| 20260506041101 | 52 | 223 | 0.9 | 1.7 | 0.00 | 0.00 | 0.01 | 98 | 929.2 |
| 20260506041000 | 52 | 221 | 0.9 | 1.7 | 0.00 | 0.00 | 0.01 | 98 | 929.2 |
| 20260506040901 | 52 | 231 | 1.7 | 1.7 | 0.00 | 0.00 | 0.01 | 98 | 929.1 |
| 20260506040801 | 52 | 203 | 0.9 | 1.7 | 0.00 | 0.00 | 0.01 | 98 | 929.2 |
| 20260506040701 | 52 | 214 | 1.7 | 1.7 | 0.00 | 0.00 | 0.01 | 98 | 929.2 |
| 20260506040601 | 51 | 220 | 1.7 | 2.6 | 0.00 | 0.00 | 0.01 | 98 | 929.0 |
| 20260506040501 | 51 | 237 | 1.7 | 2.6 | 0.00 | 0.00 | 0.01 | 98 | 929.0 |
| 20260506040402 | 51 | 189 | 1.7 | 2.6 | 0.00 | 0.00 | 0.01 | 98 | 929.0 |
| 20260506040301 | 51 | 203 | 1.7 | 2.6 | 0.00 | 0.00 | 0.01 | 98 | 929.1 |
| 20260506040202 | 51 | 234 | 0.9 | 1.7 | 0.00 | 0.00 | 0.01 | 98 | 929.0 |
| 20260506040002 | 51 | 217 | 0.9 | 2.6 | 0.00 | 0.00 | 0.01 | 98 | 928.8 |
| 20260506035901 | 51 | 226 | 1.7 | 2.6 | 0.00 | 0.00 | 0.01 | 98 | 928.9 |
| 20260506035801 | 51 | 211 | 1.7 | 1.7 | 0.00 | 0.00 | 0.01 | 98 | 928.8 |
| 20260506035701 | 51 | 205 | 1.7 | 1.7 | 0.00 | 0.00 | 0.01 | 98 | 929.1 |
| 20260506035601 | 51 | 214 | 1.7 | 1.7 | 0.00 | 0.00 | 0.01 | 98 | 929.0 |